Wetterdaten: Freitag, 02.05.2014
Datum Zeit Temp. Aussen +5cm Feuchte Auss Luftdruck Regen Sonnenschein Regendauer UV Solar Windben
02.05.2014 00:00 11,9 C 10,6 C 97 % 1010,2 hPa 0,0 l/m 0 min 2 min 0,0 UV-I 0 W/m 0,0 km/h (0 Bft)
02.05.2014 00:02 11,9 C 10,6 C 97 % 1010,2 hPa 0,0 l/m 0 min 2 min 0,0 UV-I 0 W/m 2,6 km/h (1 Bft)
02.05.2014 00:06 11,8 C 10,6 C 97 % 1010,1 hPa 0,0 l/m 0 min 2 min 0,0 UV-I 0 W/m 0,0 km/h (0 Bft)
02.05.2014 00:08 11,8 C 10,6 C 97 % 1010,2 hPa 0,0 l/m 0 min 0 min 0,0 UV-I 0 W/m 10,3 km/h (2 Bft)
02.05.2014 00:10 11,8 C 10,6 C 97 % 1010,2 hPa 0,0 l/m 0 min 0 min 0,0 UV-I 0 W/m 7,7 km/h (2 Bft)
02.05.2014 00:12 11,9 C 10,6 C 97 % 1010,3 hPa 0,0 l/m 0 min 0 min 0,0 UV-I 0 W/m 2,6 km/h (1 Bft)
02.05.2014 00:14 11,9 C 10,6 C 97 % 1010,3 hPa 0,0 l/m 0 min 0 min 0,0 UV-I 0 W/m 0,0 km/h (0 Bft)
02.05.2014 00:16 11,9 C 10,6 C 97 % 1010,4 hPa 0,0 l/m 0 min 0 min 0,0 UV-I 0 W/m 0,0 km/h (0 Bft)
02.05.2014 00:18 12,0 C 10,6 C 97 % 1010,3 hPa 0,0 l/m 0 min 0 min 0,0 UV-I 0 W/m 0,0 km/h (0 Bft)
02.05.2014 00:20 12,0 C 10,6 C 97 % 1010,3 hPa 0,0 l/m 0 min 0 min 0,0 UV-I 0 W/m 0,0 km/h (0 Bft)
02.05.2014 00:22 12,0 C 10,6 C 97 % 1010,5 hPa 0,0 l/m 0 min 0 min 0,0 UV-I 0 W/m 0,0 km/h (0 Bft)
02.05.2014 00:24 12,0 C 10,6 C 97 % 1010,4 hPa 0,0 l/m 0 min 0 min 0,0 UV-I 0 W/m 0,0 km/h (0 Bft)
02.05.2014 00:26 12,0 C 10,6 C 97 % 1010,4 hPa 0,0 l/m 0 min 0 min 0,0 UV-I 0 W/m 0,0 km/h (0 Bft)
02.05.2014 00:28 12,0 C 10,6 C 97 % 1010,4 hPa 0,0 l/m 0 min 0 min 0,0 UV-I 0 W/m 0,0 km/h (0 Bft)
02.05.2014 00:30 12,0 C 10,6 C 97 % 1010,4 hPa 0,0 l/m 0 min 0 min 0,0 UV-I 0 W/m 2,6 km/h (1 Bft)
02.05.2014 00:32 12,0 C 10,6 C 97 % 1010,4 hPa 0,0 l/m 0 min 0 min 0,0 UV-I 0 W/m 0,0 km/h (0 Bft)
02.05.2014 00:34 12,0 C 10,6 C 97 % 1010,4 hPa 0,0 l/m 0 min 0 min 0,0 UV-I 0 W/m 7,7 km/h (2 Bft)
02.05.2014 00:36 11,9 C 10,6 C 97 % 1010,4 hPa 0,0 l/m 0 min 0 min 0,0 UV-I 0 W/m 0,0 km/h (0 Bft)
02.05.2014 00:38 11,9 C 10,6 C 97 % 1010,4 hPa 0,0 l/m 0 min 0 min 0,0 UV-I 0 W/m 5,1 km/h (1 Bft)
02.05.2014 00:40 11,9 C 10,6 C 97 % 1010,5 hPa 0,0 l/m 0 min 0 min 0,0 UV-I 0 W/m 2,6 km/h (1 Bft)
02.05.2014 00:42 11,9 C 10,6 C 97 % 1010,5 hPa 0,0 l/m 0 min 2 min 0,0 UV-I 0 W/m 2,6 km/h (1 Bft)
02.05.2014 00:44 11,9 C 10,6 C 97 % 1010,5 hPa 0,0 l/m 0 min 0 min 0,0 UV-I 0 W/m 0,0 km/h (0 Bft)
02.05.2014 00:46 11,8 C 10,6 C 97 % 1010,5 hPa 0,0 l/m 0 min 0 min 0,0 UV-I 0 W/m 7,7 km/h (2 Bft)
02.05.2014 00:48 11,8 C 10,6 C 97 % 1010,5 hPa 0,0 l/m 0 min 0 min 0,0 UV-I 0 W/m 2,6 km/h (1 Bft)
02.05.2014 00:50 11,8 C 10,6 C 97 % 1010,5 hPa 0,0 l/m 0 min 0 min 0,0 UV-I 0 W/m 0,0 km/h (0 Bft)
02.05.2014 00:52 11,8 C 10,6 C 97 % 1010,5 hPa 0,0 l/m 0 min 0 min 0,0 UV-I 0 W/m 0,0 km/h (0 Bft)
02.05.2014 00:54 11,8 C 10,6 C 97 % 1010,5 hPa 0,0 l/m 0 min 0 min 0,0 UV-I 0 W/m 0,0 km/h (0 Bft)
02.05.2014 00:56 11,8 C 10,6 C 97 % 1010,6 hPa 0,0 l/m 0 min 0 min 0,0 UV-I 0 W/m 0,0 km/h (0 Bft)
02.05.2014 00:58 11,8 C 10,6 C 97 % 1010,6 hPa 0,0 l/m 0 min 0 min 0,0 UV-I 0 W/m 0,0 km/h (0 Bft)
02.05.2014 01:00 11,8 C 10,6 C 97 % 1010,6 hPa 0,0 l/m 0 min 0 min 0,0 UV-I 0 W/m 0,0 km/h (0 Bft)
02.05.2014 01:02 11,8 C 10,6 C 97 % 1010,7 hPa 0,0 l/m 0 min 2 min 0,0 UV-I 0 W/m 0,0 km/h (0 Bft)
02.05.2014 01:06 11,7 C 10,6 C 97 % 1010,7 hPa 0,0 l/m 0 min 2 min 0,0 UV-I 0 W/m 0,0 km/h (0 Bft)
02.05.2014 01:08 11,7 C 10,6 C 97 % 1010,7 hPa 0,0 l/m 0 min 2 min 0,0 UV-I 0 W/m 0,0 km/h (0 Bft)
02.05.2014 01:10 11,7 C 10,6 C 97 % 1010,7 hPa 0,0 l/m 0 min 0 min 0,0 UV-I 0 W/m 0,0 km/h (0 Bft)
02.05.2014 01:12 11,7 C 10,6 C 97 % 1010,7 hPa 0,0 l/m 0 min 2 min 0,0 UV-I 0 W/m 0,0 km/h (0 Bft)
02.05.2014 01:14 11,7 C 10,6 C 97 % 1010,7 hPa 0,0 l/m 0 min 2 min 0,0 UV-I 0 W/m 0,0 km/h (0 Bft)
02.05.2014 01:16 11,7 C 10,6 C 97 % 1010,7 hPa 0,0 l/m 0 min 2 min 0,0 UV-I 0 W/m 0,0 km/h (0 Bft)
02.05.2014 01:18 11,7 C 10,6 C 98 % 1010,8 hPa 0,0 l/m 0 min 2 min 0,0 UV-I 0 W/m 2,6 km/h (1 Bft)
02.05.2014 01:20 11,7 C 10,6 C 98 % 1010,8 hPa 0,0 l/m 0 min 0 min 0,0 UV-I 0 W/m 0,0 km/h (0 Bft)
02.05.2014 01:22 11,7 C 10,6 C 98 % 1010,8 hPa 0,0 l/m 0 min 0 min 0,0 UV-I 0 W/m 0,0 km/h (0 Bft)
02.05.2014 01:24 11,7 C 10,6 C 98 % 1010,8 hPa 0,0 l/m 0 min 0 min 0,0 UV-I 0 W/m 0,0 km/h (0 Bft)
02.05.2014 01:26 11,7 C 10,6 C 98 % 1010,8 hPa 0,0 l/m 0 min 0 min 0,0 UV-I 0 W/m 0,0 km/h (0 Bft)
02.05.2014 01:28 11,7 C 10,6 C 98 % 1010,8 hPa 0,0 l/m 0 min 0 min 0,0 UV-I 0 W/m 0,0 km/h (0 Bft)
02.05.2014 01:30 11,7 C 10,6 C 98 % 1010,8 hPa 0,0 l/m 0 min 0 min 0,0 UV-I 0 W/m 0,0 km/h (0 Bft)
02.05.2014 01:32 11,7 C 10,6 C 98 % 1010,8 hPa 0,0 l/m 0 min 0 min 0,0 UV-I 0 W/m 0,0 km/h (0 Bft)
02.05.2014 01:34 11,7 C 10,6 C 98 % 1010,8 hPa 0,0 l/m 0 min 0 min 0,0 UV-I 0 W/m 0,0 km/h (0 Bft)
02.05.2014 01:36 11,6 C 10,6 C 98 % 1010,7 hPa 0,0 l/m 0 min 0 min 0,0 UV-I 0 W/m 0,0 km/h (0 Bft)
02.05.2014 01:38 11,6 C 10,6 C 98 % 1010,7 hPa 0,0 l/m 0 min 0 min 0,0 UV-I 0 W/m 0,0 km/h (0 Bft)
02.05.2014 01:40 11,6 C 10,6 C 98 % 1010,7 hPa 0,0 l/m 0 min 0 min 0,0 UV-I 0 W/m 0,0 km/h (0 Bft)
02.05.2014 01:42 11,6 C 10,6 C 98 % 1010,8 hPa 0,0 l/m 0 min 0 min 0,0 UV-I 0 W/m 0,0 km/h (0 Bft)
02.05.2014 01:44 11,5 C 10,6 C 98 % 1010,7 hPa 0,0 l/m 0 min 0 min 0,0 UV-I 0 W/m 0,0 km/h (0 Bft)
02.05.2014 01:46 11,5 C 10,6 C 98 % 1010,8 hPa 0,0 l/m 0 min 0 min 0,0 UV-I 0 W/m 0,0 km/h (0 Bft)
02.05.2014 01:48 11,5 C 10,6 C 98 % 1010,8 hPa 0,0 l/m 0 min 0 min 0,0 UV-I 0 W/m 0,0 km/h (0 Bft)
02.05.2014 01:50 11,6 C 10,6 C 98 % 1010,8 hPa 0,0 l/m 0 min 0 min 0,0 UV-I 0 W/m 0,0 km/h (0 Bft)
02.05.2014 01:52 11,5 C 10,6 C 98 % 1010,8 hPa 0,0 l/m 0 min 0 min 0,0 UV-I 0 W/m 0,0 km/h (0 Bft)
02.05.2014 01:54 11,5 C 10,6 C 98 % 1010,8 hPa 0,0 l/m 0 min 0 min 0,0 UV-I 0 W/m 0,0 km/h (0 Bft)
02.05.2014 01:56 11,4 C 10,6 C 98 % 1010,8 hPa 0,0 l/m 0 min 0 min 0,0 UV-I 0 W/m 0,0 km/h (0 Bft)
02.05.2014 01:58 11,4 C 10,0 C 98 % 1010,8 hPa 0,0 l/m 0 min 0 min 0,0 UV-I 0 W/m 0,0 km/h (0 Bft)
02.05.2014 02:00 11,4 C 10,6 C 98 % 1010,7 hPa 0,0 l/m 0 min 0 min 0,0 UV-I 0 W/m 0,0 km/h (0 Bft)
02.05.2014 02:02 11,4 C 10,6 C 98 % 1010,7 hPa 0,0 l/m 0 min 0 min 0,0 UV-I 0 W/m 0,0 km/h (0 Bft)
02.05.2014 02:06 11,4 C 10,6 C 98 % 1010,7 hPa 0,0 l/m 0 min 0 min 0,0 UV-I 0 W/m 0,0 km/h (0 Bft)
02.05.2014 02:08 11,4 C 10,6 C 98 % 1010,7 hPa 0,0 l/m 0 min 0 min 0,0 UV-I 0 W/m 0,0 km/h (0 Bft)
02.05.2014 02:10 11,4 C 10,6 C 98 % 1010,8 hPa 0,0 l/m 0 min 0 min 0,0 UV-I 0 W/m 0,0 km/h (0 Bft)
02.05.2014 02:12 11,4 C 10,6 C 98 % 1010,8 hPa 0,0 l/m 0 min 0 min 0,0 UV-I 0 W/m 0,0 km/h (0 Bft)
02.05.2014 02:14 11,4 C 10,0 C 98 % 1010,8 hPa 0,0 l/m 0 min 0 min 0,0 UV-I 0 W/m 0,0 km/h (0 Bft)
02.05.2014 02:16 11,4 C 10,0 C 98 % 1010,8 hPa 0,0 l/m 0 min 0 min 0,0 UV-I 0 W/m 0,0 km/h (0 Bft)
02.05.2014 02:18 11,4 C 10,0 C 98 % 1010,8 hPa 0,0 l/m 0 min 0 min 0,0 UV-I 0 W/m 0,0 km/h (0 Bft)
02.05.2014 02:20 11,4 C 10,0 C 98 % 1010,9 hPa 0,0 l/m 0 min 0 min 0,0 UV-I 0 W/m 0,0 km/h (0 Bft)
02.05.2014 02:22 11,4 C 10,0 C 98 % 1010,9 hPa 0,0 l/m 0 min 0 min 0,0 UV-I 0 W/m 0,0 km/h (0 Bft)
02.05.2014 02:24 11,4 C 10,6 C 98 % 1010,9 hPa 0,0 l/m 0 min 0 min 0,0 UV-I 0 W/m 0,0 km/h (0 Bft)
02.05.2014 02:26 11,4 C 10,6 C 98 % 1010,9 hPa 0,0 l/m 0 min 0 min 0,0 UV-I 0 W/m 0,0 km/h (0 Bft)
02.05.2014 02:28 11,4 C 10,6 C 98 % 1010,9 hPa 0,0 l/m 0 min 0 min 0,0 UV-I 0 W/m 0,0 km/h (0 Bft)
02.05.2014 02:30 11,4 C 10,6 C 98 % 1010,9 hPa 0,0 l/m 0 min 0 min 0,0 UV-I 0 W/m 0,0 km/h (0 Bft)
02.05.2014 02:32 11,4 C 10,6 C 98 % 1010,9 hPa 0,0 l/m 0 min 0 min 0,0 UV-I 0 W/m 0,0 km/h (0 Bft)
02.05.2014 02:34 11,4 C 10,6 C 98 % 1010,9 hPa 0,0 l/m 0 min 0 min 0,0 UV-I 0 W/m 0,0 km/h (0 Bft)
02.05.2014 02:36 11,4 C 10,6 C 98 % 1010,9 hPa 0,0 l/m 0 min 0 min 0,0 UV-I 0 W/m 0,0 km/h (0 Bft)
02.05.2014 02:38 11,4 C 10,6 C 98 % 1011,0 hPa 0,0 l/m 0 min 0 min 0,0 UV-I 0 W/m 0,0 km/h (0 Bft)
02.05.2014 02:40 11,4 C 10,6 C 98 % 1011,0 hPa 0,0 l/m 0 min 0 min 0,0 UV-I 0 W/m 0,0 km/h (0 Bft)
02.05.2014 02:42 11,4 C 10,6 C 98 % 1011,1 hPa 0,0 l/m 0 min 0 min 0,0 UV-I 0 W/m 0,0 km/h (0 Bft)
02.05.2014 02:44 11,4 C 10,6 C 98 % 1011,0 hPa 0,0 l/m 0 min 0 min 0,0 UV-I 0 W/m 0,0 km/h (0 Bft)
02.05.2014 02:46 11,4 C 10,6 C 98 % 1011,0 hPa 0,0 l/m 0 min 0 min 0,0 UV-I 0 W/m 0,0 km/h (0 Bft)
02.05.2014 02:48 11,4 C 10,6 C 98 % 1011,0 hPa 0,0 l/m 0 min 0 min 0,0 UV-I 0 W/m 0,0 km/h (0 Bft)
02.05.2014 02:50 11,4 C 10,6 C 98 % 1011,1 hPa 0,0 l/m 0 min 0 min 0,0 UV-I 0 W/m 0,0 km/h (0 Bft)
02.05.2014 02:52 11,4 C 10,6 C 98 % 1011,0 hPa 0,0 l/m 0 min 0 min 0,0 UV-I 0 W/m 0,0 km/h (0 Bft)
02.05.2014 02:54 11,4 C 10,6 C 98 % 1011,0 hPa 0,0 l/m 0 min 0 min 0,0 UV-I 0 W/m 0,0 km/h (0 Bft)
02.05.2014 02:56 11,4 C 10,6 C 98 % 1011,1 hPa 0,0 l/m 0 min 0 min 0,0 UV-I 0 W/m 0,0 km/h (0 Bft)
02.05.2014 02:58 11,4 C 10,6 C 98 % 1011,1 hPa 0,0 l/m 0 min 0 min 0,0 UV-I 0 W/m 0,0 km/h (0 Bft)
02.05.2014 03:00 11,4 C 10,6 C 98 % 1011,1 hPa 0,0 l/m 0 min 0 min 0,0 UV-I 0 W/m 0,0 km/h (0 Bft)
02.05.2014 03:02 11,4 C 10,6 C 98 % 1011,1 hPa 0,0 l/m 0 min 0 min 0,0 UV-I 0 W/m 0,0 km/h (0 Bft)
02.05.2014 03:06 11,4 C 10,6 C 98 % 1011,1 hPa 0,0 l/m 0 min 0 min 0,0 UV-I 0 W/m 5,1 km/h (1 Bft)
02.05.2014 03:08 11,4 C 10,6 C 98 % 1011,2 hPa 0,0 l/m 0 min 0 min 0,0 UV-I 0 W/m 0,0 km/h (0 Bft)
02.05.2014 03:10 11,4 C 10,6 C 98 % 1011,2 hPa 0,0 l/m 0 min 0 min 0,0 UV-I 0 W/m 0,0 km/h (0 Bft)
02.05.2014 03:12 11,4 C 10,6 C 98 % 1011,1 hPa 0,0 l/m 0 min 0 min 0,0 UV-I 0 W/m 2,6 km/h (1 Bft)
02.05.2014 03:14 11,4 C 10,6 C 98 % 1011,1 hPa 0,0 l/m 0 min 0 min 0,0 UV-I 0 W/m 0,0 km/h (0 Bft)
02.05.2014 03:16 11,4 C 10,6 C 98 % 1011,2 hPa 0,0 l/m 0 min 0 min 0,0 UV-I 0 W/m 0,0 km/h (0 Bft)
02.05.2014 03:18 11,4 C 10,6 C 98 % 1011,1 hPa 0,0 l/m 0 min 0 min 0,0 UV-I 0 W/m 0,0 km/h (0 Bft)
02.05.2014 03:20 11,4 C 10,6 C 98 % 1011,2 hPa 0,0 l/m 0 min 0 min 0,0 UV-I 0 W/m 2,6 km/h (1 Bft)
02.05.2014 03:22 11,4 C 10,0 C 98 % 1011,1 hPa 0,0 l/m 0 min 0 min 0,0 UV-I 0 W/m 7,7 km/h (2 Bft)
02.05.2014 03:24 11,4 C 10,0 C 98 % 1011,2 hPa 0,0 l/m 0 min 0 min 0,0 UV-I 0 W/m 7,7 km/h (2 Bft)
02.05.2014 03:26 11,4 C 10,0 C 98 % 1011,2 hPa 0,0 l/m 0 min 0 min 0,0 UV-I 0 W/m 2,6 km/h (1 Bft)
02.05.2014 03:28 11,4 C 10,0 C 98 % 1011,2 hPa 0,0 l/m 0 min 0 min 0,0 UV-I 0 W/m 0,0 km/h (0 Bft)
02.05.2014 03:30 11,4 C 10,0 C 98 % 1011,2 hPa 0,0 l/m 0 min 0 min 0,0 UV-I 0 W/m 0,0 km/h (0 Bft)
02.05.2014 03:32 11,4 C 10,0 C 98 % 1011,2 hPa 0,0 l/m 0 min 0 min 0,0 UV-I 0 W/m 5,1 km/h (1 Bft)
02.05.2014 03:34 11,4 C 10,0 C 98 % 1011,2 hPa 0,0 l/m 0 min 0 min 0,0 UV-I 0 W/m 0,0 km/h (0 Bft)
02.05.2014 03:36 11,4 C 10,0 C 98 % 1011,2 hPa 0,0 l/m 0 min 0 min 0,0 UV-I 0 W/m 0,0 km/h (0 Bft)
02.05.2014 03:38 11,4 C 10,0 C 98 % 1011,3 hPa 0,0 l/m 0 min 0 min 0,0 UV-I 0 W/m 0,0 km/h (0 Bft)
02.05.2014 03:40 11,4 C 10,6 C 98 % 1011,3 hPa 0,0 l/m 0 min 2 min 0,0 UV-I 0 W/m 2,6 km/h (1 Bft)
02.05.2014 03:42 11,4 C 10,6 C 98 % 1011,3 hPa 0,0 l/m 0 min 2 min 0,0 UV-I 0 W/m 0,0 km/h (0 Bft)
02.05.2014 03:44 11,4 C 10,6 C 98 % 1011,3 hPa 0,0 l/m 0 min 0 min 0,0 UV-I 0 W/m 0,0 km/h (0 Bft)
02.05.2014 03:46 11,4 C 10,6 C 98 % 1011,2 hPa 0,0 l/m 0 min 0 min 0,0 UV-I 0 W/m 0,0 km/h (0 Bft)
02.05.2014 03:48 11,4 C 10,6 C 98 % 1011,3 hPa 0,0 l/m 0 min 2 min 0,0 UV-I 0 W/m 2,6 km/h (1 Bft)
02.05.2014 03:50 11,4 C 10,6 C 98 % 1011,2 hPa 0,0 l/m 0 min 0 min 0,0 UV-I 0 W/m 0,0 km/h (0 Bft)
02.05.2014 03:52 11,4 C 10,6 C 98 % 1011,3 hPa 0,0 l/m 0 min 0 min 0,0 UV-I 0 W/m 0,0 km/h (0 Bft)
02.05.2014 03:54 11,4 C 10,6 C 98 % 1011,3 hPa 0,0 l/m 0 min 0 min 0,0 UV-I 0 W/m 5,1 km/h (1 Bft)
02.05.2014 03:56 11,4 C 10,6 C 98 % 1011,3 hPa 0,0 l/m 0 min 0 min 0,0 UV-I 0 W/m 0,0 km/h (0 Bft)
02.05.2014 03:58 11,4 C 10,6 C 98 % 1011,3 hPa 0,0 l/m 0 min 0 min 0,0 UV-I 0 W/m 2,6 km/h (1 Bft)
02.05.2014 04:00 11,4 C 10,6 C 98 % 1011,2 hPa 0,0 l/m 0 min 0 min 0,0 UV-I 0 W/m 0,0 km/h (0 Bft)
02.05.2014 04:02 11,4 C 10,6 C 98 % 1011,2 hPa 0,0 l/m 0 min 0 min 0,0 UV-I 0 W/m 0,0 km/h (0 Bft)
02.05.2014 04:06 11,5 C 10,6 C 98 % 1011,3 hPa 0,0 l/m 0 min 0 min 0,0 UV-I 0 W/m 0,0 km/h (0 Bft)
02.05.2014 04:08 11,5 C 10,6 C 98 % 1011,4 hPa 0,0 l/m 0 min 0 min 0,0 UV-I 0 W/m 7,7 km/h (2 Bft)
02.05.2014 04:10 11,4 C 10,6 C 98 % 1011,3 hPa 0,0 l/m 0 min 2 min 0,0 UV-I 0 W/m 5,1 km/h (1 Bft)
02.05.2014 04:12 11,5 C 10,6 C 98 % 1011,3 hPa 0,0 l/m 0 min 0 min 0,0 UV-I 0 W/m 0,0 km/h (0 Bft)
02.05.2014 04:14 11,5 C 10,6 C 98 % 1011,4 hPa 0,0 l/m 0 min 0 min 0,0 UV-I 0 W/m 5,1 km/h (1 Bft)
02.05.2014 04:16 11,5 C 10,6 C 98 % 1011,4 hPa 0,0 l/m 0 min 2 min 0,0 UV-I 0 W/m 7,7 km/h (2 Bft)
02.05.2014 04:18 11,5 C 10,6 C 98 % 1011,4 hPa 0,0 l/m 0 min 2 min 0,0 UV-I 0 W/m 2,6 km/h (1 Bft)
02.05.2014 04:20 11,4 C 10,6 C 98 % 1011,3 hPa 0,0 l/m 0 min 2 min 0,0 UV-I 0 W/m 12,9 km/h (3 Bft)
02.05.2014 04:22 11,4 C 10,0 C 98 % 1011,4 hPa 0,0 l/m 0 min 2 min 0,0 UV-I 0 W/m 12,9 km/h (3 Bft)
02.05.2014 04:24 11,4 C 10,6 C 98 % 1011,4 hPa 0,0 l/m 0 min 2 min 0,0 UV-I 0 W/m 5,1 km/h (1 Bft)
02.05.2014 04:26 11,4 C 10,0 C 98 % 1011,4 hPa 0,0 l/m 0 min 2 min 0,0 UV-I 0 W/m 12,9 km/h (3 Bft)
02.05.2014 04:28 11,4 C 10,0 C 98 % 1011,4 hPa 0,0 l/m 0 min 2 min 0,0 UV-I 0 W/m 10,3 km/h (2 Bft)
02.05.2014 04:30 11,4 C 10,0 C 98 % 1011,4 hPa 0,2 l/m 0 min 2 min 0,0 UV-I 0 W/m 7,7 km/h (2 Bft)
02.05.2014 04:32 11,4 C 10,0 C 98 % 1011,4 hPa 0,0 l/m 0 min 2 min 0,0 UV-I 0 W/m 0,0 km/h (0 Bft)
02.05.2014 04:34 11,4 C 10,6 C 98 % 1011,4 hPa 0,0 l/m 0 min 2 min 0,0 UV-I 0 W/m 7,7 km/h (2 Bft)
02.05.2014 04:36 11,4 C 10,0 C 98 % 1011,4 hPa 0,0 l/m 0 min 2 min 0,0 UV-I 0 W/m 15,4 km/h (3 Bft)
02.05.2014 04:38 11,4 C 10,0 C 98 % 1011,4 hPa 0,0 l/m 0 min 2 min 0,0 UV-I 0 W/m 7,7 km/h (2 Bft)
02.05.2014 04:40 11,4 C 10,0 C 98 % 1011,5 hPa 0,0 l/m 0 min 2 min 0,0 UV-I 0 W/m 10,3 km/h (2 Bft)
02.05.2014 04:42 11,4 C 10,0 C 98 % 1011,5 hPa 0,0 l/m 0 min 2 min 0,0 UV-I 0 W/m 7,7 km/h (2 Bft)
02.05.2014 04:44 11,3 C 10,0 C 98 % 1011,4 hPa 0,0 l/m 0 min 2 min 0,0 UV-I 0 W/m 7,7 km/h (2 Bft)
02.05.2014 04:46 11,4 C 10,0 C 98 % 1011,5 hPa 0,0 l/m 0 min 2 min 0,0 UV-I 0 W/m 5,1 km/h (1 Bft)
02.05.2014 04:48 11,3 C 10,0 C 98 % 1011,6 hPa 0,0 l/m 0 min 2 min 0,0 UV-I 0 W/m 2,6 km/h (1 Bft)
02.05.2014 04:50 11,3 C 10,0 C 98 % 1011,5 hPa 0,0 l/m 0 min 2 min 0,0 UV-I 0 W/m 10,3 km/h (2 Bft)
02.05.2014 04:52 11,3 C 10,0 C 98 % 1011,5 hPa 0,0 l/m 0 min 2 min 0,0 UV-I 0 W/m 12,9 km/h (3 Bft)
02.05.2014 04:54 11,3 C 10,0 C 98 % 1011,5 hPa 0,0 l/m 0 min 2 min 0,0 UV-I 0 W/m 7,7 km/h (2 Bft)
02.05.2014 04:56 11,3 C 10,0 C 98 % 1011,6 hPa 0,0 l/m 0 min 2 min 0,0 UV-I 0 W/m 0,0 km/h (0 Bft)
02.05.2014 04:58 11,3 C 10,0 C 98 % 1011,6 hPa 0,0 l/m 0 min 2 min 0,0 UV-I 0 W/m 7,7 km/h (2 Bft)
02.05.2014 05:00 11,3 C 10,0 C 98 % 1011,5 hPa 0,0 l/m 0 min 2 min 0,0 UV-I 0 W/m 2,6 km/h (1 Bft)
02.05.2014 05:02 11,3 C 10,0 C 98 % 1011,5 hPa 0,0 l/m 0 min 2 min 0,0 UV-I 0 W/m 5,1 km/h (1 Bft)
02.05.2014 05:06 11,2 C 10,0 C 98 % 1011,6 hPa 0,0 l/m 0 min 2 min 0,0 UV-I 0 W/m 7,7 km/h (2 Bft)
02.05.2014 05:08 11,2 C 10,0 C 98 % 1011,5 hPa 0,0 l/m 0 min 2 min 0,0 UV-I 0 W/m 0,0 km/h (0 Bft)
02.05.2014 05:10 11,2 C 10,0 C 98 % 1011,6 hPa 0,0 l/m 0 min 2 min 0,0 UV-I 0 W/m 12,9 km/h (3 Bft)
02.05.2014 05:12 11,2 C 10,0 C 98 % 1011,6 hPa 0,0 l/m 0 min 0 min 0,0 UV-I 0 W/m 7,7 km/h (2 Bft)
02.05.2014 05:14 11,2 C 10,0 C 98 % 1011,7 hPa 0,0 l/m 0 min 0 min 0,0 UV-I 0 W/m 7,7 km/h (2 Bft)
02.05.2014 05:16 11,2 C 10,0 C 98 % 1011,6 hPa 0,0 l/m 0 min 2 min 0,0 UV-I 0 W/m 7,7 km/h (2 Bft)
02.05.2014 05:18 11,2 C 10,0 C 98 % 1011,7 hPa 0,0 l/m 0 min 0 min 0,0 UV-I 0 W/m 15,4 km/h (3 Bft)
02.05.2014 05:20 11,2 C 10,0 C 98 % 1011,7 hPa 0,0 l/m 0 min 0 min 0,0 UV-I 0 W/m 5,1 km/h (1 Bft)
02.05.2014 05:22 11,2 C 10,0 C 98 % 1011,7 hPa 0,0 l/m 0 min 0 min 0,0 UV-I 0 W/m 5,1 km/h (1 Bft)
02.05.2014 05:24 11,2 C 10,0 C 98 % 1011,7 hPa 0,0 l/m 0 min 0 min 0,0 UV-I 0 W/m 2,6 km/h (1 Bft)
02.05.2014 05:26 11,1 C 10,0 C 98 % 1011,6 hPa 0,0 l/m 0 min 0 min 0,0 UV-I 0 W/m 12,9 km/h (3 Bft)
02.05.2014 05:28 11,1 C 10,0 C 98 % 1011,6 hPa 0,0 l/m 0 min 2 min 0,0 UV-I 0 W/m 2,6 km/h (1 Bft)
02.05.2014 05:30 11,1 C 10,0 C 98 % 1011,6 hPa 0,0 l/m 0 min 2 min 0,0 UV-I 0 W/m 18,0 km/h (3 Bft)
02.05.2014 05:32 11,1 C 10,0 C 98 % 1011,6 hPa 0,0 l/m 0 min 2 min 0,0 UV-I 0 W/m 10,3 km/h (2 Bft)
02.05.2014 05:34 11,1 C 10,0 C 98 % 1011,7 hPa 0,0 l/m 0 min 2 min 0,0 UV-I 0 W/m 12,9 km/h (3 Bft)
02.05.2014 05:36 11,0 C 10,0 C 98 % 1011,8 hPa 0,0 l/m 0 min 2 min 0,0 UV-I 0 W/m 7,7 km/h (2 Bft)
02.05.2014 05:38 11,1 C 10,0 C 98 % 1011,8 hPa 0,0 l/m 0 min 2 min 0,0 UV-I 0 W/m 12,9 km/h (3 Bft)
02.05.2014 05:40 11,1 C 10,0 C 98 % 1011,8 hPa 0,0 l/m 0 min 0 min 0,0 UV-I 0 W/m 12,9 km/h (3 Bft)
02.05.2014 05:42 11,1 C 10,0 C 98 % 1011,8 hPa 0,0 l/m 0 min 0 min 0,0 UV-I 0 W/m 15,4 km/h (3 Bft)
02.05.2014 05:44 11,1 C 10,0 C 98 % 1011,8 hPa 0,0 l/m 0 min 2 min 0,0 UV-I 0 W/m 10,3 km/h (2 Bft)
02.05.2014 05:46 11,1 C 10,0 C 98 % 1011,8 hPa 0,0 l/m 0 min 0 min 0,0 UV-I 0 W/m 5,1 km/h (1 Bft)
02.05.2014 05:48 11,0 C 10,0 C 98 % 1011,8 hPa 0,0 l/m 0 min 2 min 0,0 UV-I 0 W/m 7,7 km/h (2 Bft)
02.05.2014 05:50 11,0 C 10,0 C 98 % 1011,9 hPa 0,0 l/m 0 min 2 min 0,0 UV-I 0 W/m 12,9 km/h (3 Bft)
02.05.2014 05:52 11,0 C 10,0 C 98 % 1011,8 hPa 0,0 l/m 0 min 0 min 0,0 UV-I 0 W/m 10,3 km/h (2 Bft)
02.05.2014 05:54 10,9 C 10,0 C 98 % 1011,9 hPa 0,0 l/m 0 min 2 min 0,0 UV-I 0 W/m 18,0 km/h (3 Bft)
02.05.2014 05:56 10,9 C 10,0 C 98 % 1011,9 hPa 0,0 l/m 0 min 0 min 0,0 UV-I 0 W/m 18,0 km/h (3 Bft)
02.05.2014 05:58 10,9 C 10,0 C 98 % 1012,0 hPa 0,0 l/m 0 min 0 min 0,0 UV-I 0 W/m 10,3 km/h (2 Bft)
02.05.2014 06:00 10,9 C 10,0 C 98 % 1012,0 hPa 0,0 l/m 0 min 0 min 0,0 UV-I 0 W/m 12,9 km/h (3 Bft)
02.05.2014 06:02 10,9 C 10,0 C 98 % 1012,0 hPa 0,0 l/m 0 min 0 min 0,0 UV-I 0 W/m 15,4 km/h (3 Bft)
02.05.2014 06:06 10,9 C 10,0 C 98 % 1012,0 hPa 0,0 l/m 0 min 0 min 0,0 UV-I 0 W/m 10,3 km/h (2 Bft)
02.05.2014 06:08 10,9 C 10,0 C 98 % 1012,0 hPa 0,0 l/m 0 min 0 min 0,0 UV-I 0 W/m 0,0 km/h (0 Bft)
02.05.2014 06:10 10,9 C 10,0 C 98 % 1012,1 hPa 0,0 l/m 0 min 0 min 0,0 UV-I 0 W/m 12,9 km/h (3 Bft)
02.05.2014 06:12 10,9 C 10,0 C 98 % 1012,1 hPa 0,0 l/m 0 min 0 min 0,0 UV-I 0 W/m 10,3 km/h (2 Bft)
02.05.2014 06:14 10,9 C 10,0 C 98 % 1012,0 hPa 0,0 l/m 0 min 2 min 0,0 UV-I 0 W/m 0,0 km/h (0 Bft)
02.05.2014 06:16 10,9 C 10,0 C 98 % 1012,1 hPa 0,0 l/m 0 min 0 min 0,0 UV-I 0 W/m 7,7 km/h (2 Bft)
02.05.2014 06:18 10,9 C 10,0 C 98 % 1012,2 hPa 0,0 l/m 0 min 0 min 0,0 UV-I 0 W/m 7,7 km/h (2 Bft)
02.05.2014 06:20 10,9 C 10,0 C 98 % 1012,2 hPa 0,0 l/m 0 min 0 min 0,0 UV-I 0 W/m 5,1 km/h (1 Bft)
02.05.2014 06:22 10,9 C 10,0 C 98 % 1012,2 hPa 0,0 l/m 0 min 0 min 0,0 UV-I 0 W/m 7,7 km/h (2 Bft)
02.05.2014 06:24 10,9 C 10,0 C 98 % 1012,2 hPa 0,0 l/m 0 min 0 min 0,0 UV-I 5 W/m 2,6 km/h (1 Bft)
02.05.2014 06:26 10,9 C 10,0 C 98 % 1012,2 hPa 0,0 l/m 0 min 0 min 0,0 UV-I 5 W/m 0,0 km/h (0 Bft)
02.05.2014 06:28 10,9 C 10,0 C 98 % 1012,2 hPa 0,0 l/m 0 min 0 min 0,0 UV-I 5 W/m 7,7 km/h (2 Bft)
02.05.2014 06:30 10,9 C 10,0 C 98 % 1012,2 hPa 0,0 l/m 0 min 0 min 0,0 UV-I 5 W/m 12,9 km/h (3 Bft)
02.05.2014 06:32 10,9 C 10,0 C 98 % 1012,3 hPa 0,0 l/m 0 min 0 min 0,0 UV-I 5 W/m 10,3 km/h (2 Bft)
02.05.2014 06:34 10,9 C 10,0 C 98 % 1012,3 hPa 0,0 l/m 0 min 0 min 0,0 UV-I 5 W/m 0,0 km/h (0 Bft)
02.05.2014 06:36 10,9 C 10,0 C 98 % 1012,3 hPa 0,0 l/m 0 min 2 min 0,0 UV-I 5 W/m 2,6 km/h (1 Bft)
02.05.2014 06:38 10,9 C 10,0 C 98 % 1012,3 hPa 0,0 l/m 0 min 2 min 0,0 UV-I 5 W/m 2,6 km/h (1 Bft)
02.05.2014 06:40 10,9 C 10,0 C 98 % 1012,4 hPa 0,0 l/m 0 min 2 min 0,0 UV-I 5 W/m 10,3 km/h (2 Bft)
02.05.2014 06:42 10,9 C 10,0 C 98 % 1012,4 hPa 0,0 l/m 0 min 2 min 0,0 UV-I 5 W/m 7,7 km/h (2 Bft)
02.05.2014 06:44 10,9 C 10,0 C 98 % 1012,5 hPa 0,0 l/m 0 min 2 min 0,0 UV-I 5 W/m 12,9 km/h (3 Bft)
02.05.2014 06:46 10,9 C 10,0 C 98 % 1012,4 hPa 0,0 l/m 0 min 0 min 0,0 UV-I 7 W/m 10,3 km/h (2 Bft)
02.05.2014 06:48 10,9 C 10,0 C 98 % 1012,5 hPa 0,0 l/m 0 min 0 min 0,0 UV-I 7 W/m 7,7 km/h (2 Bft)
02.05.2014 06:50 10,8 C 10,0 C 98 % 1012,5 hPa 0,0 l/m 0 min 0 min 0,0 UV-I 7 W/m 10,3 km/h (2 Bft)
02.05.2014 06:52 10,8 C 10,0 C 98 % 1012,5 hPa 0,0 l/m 0 min 0 min 0,0 UV-I 9 W/m 10,3 km/h (2 Bft)
02.05.2014 06:54 10,8 C 9,4 C 98 % 1012,6 hPa 0,0 l/m 0 min 0 min 0,0 UV-I 9 W/m 10,3 km/h (2 Bft)
02.05.2014 06:56 10,8 C 10,0 C 98 % 1012,6 hPa 0,0 l/m 0 min 0 min 0,0 UV-I 11 W/m 7,7 km/h (2 Bft)
02.05.2014 06:58 10,8 C 9,4 C 98 % 1012,6 hPa 0,0 l/m 0 min 0 min 0,0 UV-I 9 W/m 12,9 km/h (3 Bft)
02.05.2014 07:00 10,8 C 10,0 C 98 % 1012,7 hPa 0,0 l/m 0 min 0 min 0,0 UV-I 11 W/m 5,1 km/h (1 Bft)
02.05.2014 07:02 10,8 C 10,0 C 98 % 1012,7 hPa 0,0 l/m 0 min 0 min 0,0 UV-I 11 W/m 15,4 km/h (3 Bft)
02.05.2014 07:06 10,8 C 9,4 C 98 % 1012,7 hPa 0,0 l/m 0 min 0 min 0,0 UV-I 12 W/m 12,9 km/h (3 Bft)
02.05.2014 07:08 10,8 C 9,4 C 98 % 1012,8 hPa 0,0 l/m 0 min 0 min 0,0 UV-I 12 W/m 10,3 km/h (2 Bft)
02.05.2014 07:10 10,8 C 9,4 C 98 % 1012,8 hPa 0,0 l/m 0 min 0 min 0,0 UV-I 12 W/m 10,3 km/h (2 Bft)
02.05.2014 07:12 10,8 C 9,4 C 98 % 1012,8 hPa 0,0 l/m 0 min 0 min 0,0 UV-I 12 W/m 10,3 km/h (2 Bft)
02.05.2014 07:14 10,7 C 9,4 C 98 % 1012,8 hPa 0,0 l/m 0 min 0 min 0,0 UV-I 14 W/m 10,3 km/h (2 Bft)
02.05.2014 07:16 10,8 C 9,4 C 98 % 1012,9 hPa 0,0 l/m 0 min 0 min 0,0 UV-I 14 W/m 10,3 km/h (2 Bft)
02.05.2014 07:18 10,8 C 9,4 C 98 % 1012,9 hPa 0,0 l/m 0 min 0 min 0,0 UV-I 14 W/m 5,1 km/h (1 Bft)
02.05.2014 07:20 10,8 C 10,0 C 98 % 1013,0 hPa 0,0 l/m 0 min 0 min 0,0 UV-I 14 W/m 10,3 km/h (2 Bft)
02.05.2014 07:22 10,8 C 10,0 C 98 % 1013,0 hPa 0,0 l/m 0 min 0 min 0,0 UV-I 18 W/m 12,9 km/h (3 Bft)
02.05.2014 07:24 10,8 C 10,0 C 98 % 1013,0 hPa 0,0 l/m 0 min 0 min 0,0 UV-I 18 W/m 7,7 km/h (2 Bft)
02.05.2014 07:26 10,8 C 10,0 C 98 % 1013,1 hPa 0,0 l/m 0 min 0 min 0,0 UV-I 19 W/m 15,4 km/h (3 Bft)
02.05.2014 07:28 10,8 C 10,0 C 98 % 1013,1 hPa 0,0 l/m 0 min 0 min 0,0 UV-I 19 W/m 12,9 km/h (3 Bft)
02.05.2014 07:30 10,8 C 10,0 C 98 % 1013,1 hPa 0,0 l/m 0 min 0 min 0,0 UV-I 21 W/m 12,9 km/h (3 Bft)
02.05.2014 07:32 10,8 C 9,4 C 98 % 1013,1 hPa 0,0 l/m 0 min 0 min 0,0 UV-I 21 W/m 20,6 km/h (4 Bft)
02.05.2014 07:34 10,7 C 9,4 C 98 % 1013,1 hPa 0,0 l/m 0 min 0 min 0,0 UV-I 23 W/m 15,4 km/h (3 Bft)
02.05.2014 07:36 10,7 C 9,4 C 98 % 1013,2 hPa 0,0 l/m 0 min 0 min 0,0 UV-I 26 W/m 20,6 km/h (4 Bft)
02.05.2014 07:38 10,7 C 9,4 C 98 % 1013,1 hPa 0,0 l/m 0 min 0 min 0,0 UV-I 28 W/m 18,0 km/h (3 Bft)
02.05.2014 07:40 10,7 C 9,4 C 98 % 1013,1 hPa 0,0 l/m 0 min 0 min 0,0 UV-I 26 W/m 10,3 km/h (2 Bft)
02.05.2014 07:42 10,6 C 9,4 C 98 % 1013,2 hPa 0,0 l/m 0 min 0 min 0,0 UV-I 26 W/m 12,9 km/h (3 Bft)
02.05.2014 07:44 10,6 C 9,4 C 98 % 1013,3 hPa 0,0 l/m 0 min 0 min 0,0 UV-I 30 W/m 12,9 km/h (3 Bft)
02.05.2014 07:46 10,6 C 9,4 C 98 % 1013,3 hPa 0,0 l/m 0 min 0 min 0,0 UV-I 30 W/m 10,3 km/h (2 Bft)
02.05.2014 07:48 10,6 C 9,4 C 98 % 1013,3 hPa 0,0 l/m 0 min 0 min 0,0 UV-I 30 W/m 10,3 km/h (2 Bft)
02.05.2014 07:50 10,6 C 9,4 C 98 % 1013,3 hPa 0,0 l/m 0 min 0 min 0,0 UV-I 28 W/m 15,4 km/h (3 Bft)
02.05.2014 07:52 10,6 C 9,4 C 98 % 1013,4 hPa 0,0 l/m 0 min 0 min 0,0 UV-I 25 W/m 7,7 km/h (2 Bft)
02.05.2014 07:54 10,5 C 9,4 C 98 % 1013,4 hPa 0,0 l/m 0 min 0 min 0,0 UV-I 23 W/m 15,4 km/h (3 Bft)
02.05.2014 07:56 10,5 C 9,4 C 98 % 1013,5 hPa 0,0 l/m 0 min 0 min 0,0 UV-I 26 W/m 12,9 km/h (3 Bft)
02.05.2014 07:58 10,5 C 9,4 C 98 % 1013,5 hPa 0,0 l/m 0 min 0 min 0,0 UV-I 25 W/m 7,7 km/h (2 Bft)
02.05.2014 08:00 10,4 C 9,4 C 98 % 1013,5 hPa 0,0 l/m 0 min 0 min 0,0 UV-I 23 W/m 18,0 km/h (3 Bft)
02.05.2014 08:02 10,4 C 9,4 C 98 % 1013,5 hPa 0,0 l/m 0 min 0 min 0,0 UV-I 23 W/m 15,4 km/h (3 Bft)
02.05.2014 08:06 10,4 C 9,4 C 98 % 1013,6 hPa 0,0 l/m 0 min 0 min 0,0 UV-I 26 W/m 23,2 km/h (4 Bft)
02.05.2014 08:08 10,3 C 9,4 C 98 % 1013,6 hPa 0,0 l/m 0 min 0 min 0,0 UV-I 30 W/m 20,6 km/h (4 Bft)
02.05.2014 08:10 10,3 C 9,4 C 98 % 1013,6 hPa 0,0 l/m 0 min 0 min 0,0 UV-I 30 W/m 23,2 km/h (4 Bft)
02.05.2014 08:12 10,2 C 9,4 C 98 % 1013,7 hPa 0,0 l/m 0 min 0 min 0,0 UV-I 33 W/m 15,4 km/h (3 Bft)
02.05.2014 08:14 10,2 C 9,4 C 98 % 1013,6 hPa 0,0 l/m 0 min 0 min 0,0 UV-I 33 W/m 18,0 km/h (3 Bft)
02.05.2014 08:16 10,1 C 9,4 C 98 % 1013,7 hPa 0,0 l/m 0 min 0 min 0,0 UV-I 32 W/m 20,6 km/h (4 Bft)
02.05.2014 08:18 10,1 C 8,9 C 98 % 1013,7 hPa 0,0 l/m 0 min 0 min 0,0 UV-I 30 W/m 15,4 km/h (3 Bft)
02.05.2014 08:20 10,1 C 8,9 C 98 % 1013,7 hPa 0,0 l/m 0 min 0 min 0,0 UV-I 32 W/m 12,9 km/h (3 Bft)
02.05.2014 08:22 10,1 C 9,4 C 98 % 1013,8 hPa 0,0 l/m 0 min 0 min 0,0 UV-I 42 W/m 18,0 km/h (3 Bft)
02.05.2014 08:24 10,0 C 9,4 C 98 % 1013,8 hPa 0,0 l/m 0 min 0 min 0,0 UV-I 46 W/m 18,0 km/h (3 Bft)
02.05.2014 08:26 10,0 C 9,4 C 98 % 1013,9 hPa 0,0 l/m 0 min 0 min 0,0 UV-I 42 W/m 15,4 km/h (3 Bft)
02.05.2014 08:28 9,9 C 8,9 C 98 % 1014,0 hPa 0,0 l/m 0 min 0 min 0,0 UV-I 39 W/m 20,6 km/h (4 Bft)
02.05.2014 08:30 9,9 C 8,9 C 98 % 1013,9 hPa 0,0 l/m 0 min 0 min 0,0 UV-I 40 W/m 18,0 km/h (3 Bft)
02.05.2014 08:32 9,9 C 8,9 C 98 % 1014,0 hPa 0,0 l/m 0 min 0 min 0,0 UV-I 37 W/m 15,4 km/h (3 Bft)
02.05.2014 08:34 9,9 C 8,9 C 98 % 1014,0 hPa 0,0 l/m 0 min 0 min 0,0 UV-I 37 W/m 10,3 km/h (2 Bft)
02.05.2014 08:36 9,9 C 8,9 C 98 % 1014,0 hPa 0,0 l/m 0 min 0 min 0,0 UV-I 32 W/m 10,3 km/h (2 Bft)
02.05.2014 08:38 9,8 C 8,9 C 98 % 1014,0 hPa 0,0 l/m 0 min 0 min 0,0 UV-I 28 W/m 10,3 km/h (2 Bft)
02.05.2014 08:40 9,8 C 8,9 C 98 % 1014,1 hPa 0,0 l/m 0 min 0 min 0,0 UV-I 30 W/m 2,6 km/h (1 Bft)
02.05.2014 08:42 9,8 C 8,9 C 98 % 1014,1 hPa 0,0 l/m 0 min 0 min 0,0 UV-I 26 W/m 15,4 km/h (3 Bft)
02.05.2014 08:44 9,8 C 8,9 C 98 % 1014,1 hPa 0,0 l/m 0 min 0 min 0,0 UV-I 26 W/m 7,7 km/h (2 Bft)
02.05.2014 08:46 9,8 C 8,9 C 98 % 1014,1 hPa 0,0 l/m 0 min 0 min 0,0 UV-I 32 W/m 0,0 km/h (0 Bft)
02.05.2014 08:48 9,8 C 8,9 C 98 % 1014,2 hPa 0,0 l/m 0 min 0 min 0,0 UV-I 49 W/m 12,9 km/h (3 Bft)
02.05.2014 08:50 9,7 C 8,9 C 98 % 1014,2 hPa 0,0 l/m 0 min 0 min 0,0 UV-I 49 W/m 15,4 km/h (3 Bft)
02.05.2014 08:52 9,7 C 8,9 C 97 % 1014,1 hPa 0,0 l/m 0 min 0 min 0,0 UV-I 53 W/m 18,0 km/h (3 Bft)
02.05.2014 08:54 9,7 C 8,9 C 97 % 1014,1 hPa 0,0 l/m 0 min 0 min 0,0 UV-I 63 W/m 15,4 km/h (3 Bft)
02.05.2014 08:56 9,7 C 8,9 C 97 % 1014,1 hPa 0,0 l/m 0 min 0 min 0,0 UV-I 95 W/m 12,9 km/h (3 Bft)
02.05.2014 08:58 9,8 C 9,4 C 97 % 1014,1 hPa 0,0 l/m 0 min 0 min 0,0 UV-I 107 W/m 7,7 km/h (2 Bft)
02.05.2014 09:00 9,8 C 9,4 C 97 % 1014,1 hPa 0,0 l/m 0 min 0 min 0,0 UV-I 123 W/m 0,0 km/h (0 Bft)
02.05.2014 09:02 9,9 C 9,4 C 97 % 1014,1 hPa 0,0 l/m 0 min 0 min 0,0 UV-I 118 W/m 0,0 km/h (0 Bft)
02.05.2014 09:06 10,1 C 9,4 C 97 % 1014,1 hPa 0,0 l/m 0 min 0 min 0,0 UV-I 142 W/m 12,9 km/h (3 Bft)
02.05.2014 09:08 10,1 C 9,4 C 97 % 1014,1 hPa 0,0 l/m 0 min 0 min 0,0 UV-I 156 W/m 15,4 km/h (3 Bft)
02.05.2014 09:10 10,2 C 10,0 C 97 % 1014,2 hPa 0,0 l/m 0 min 0 min 0,0 UV-I 160 W/m 10,3 km/h (2 Bft)
02.05.2014 09:12 10,2 C 10,0 C 97 % 1014,2 hPa 0,0 l/m 0 min 0 min 0,0 UV-I 162 W/m 20,6 km/h (4 Bft)
02.05.2014 09:14 10,2 C 10,0 C 97 % 1014,2 hPa 0,0 l/m 0 min 0 min 0,0 UV-I 174 W/m 10,3 km/h (2 Bft)
02.05.2014 09:16 10,3 C 10,0 C 97 % 1014,3 hPa 0,0 l/m 0 min 0 min 0,0 UV-I 162 W/m 15,4 km/h (3 Bft)
02.05.2014 09:18 10,3 C 10,0 C 97 % 1014,2 hPa 0,0 l/m 0 min 0 min 0,0 UV-I 153 W/m 10,3 km/h (2 Bft)
02.05.2014 09:20 10,4 C 10,0 C 97 % 1014,3 hPa 0,0 l/m 0 min 0 min 0,0 UV-I 153 W/m 10,3 km/h (2 Bft)
02.05.2014 09:22 10,4 C 10,0 C 97 % 1014,2 hPa 0,0 l/m 0 min 0 min 0,0 UV-I 153 W/m 10,3 km/h (2 Bft)
02.05.2014 09:24 10,4 C 10,0 C 96 % 1014,3 hPa 0,0 l/m 0 min 0 min 0,0 UV-I 148 W/m 15,4 km/h (3 Bft)
02.05.2014 09:26 10,4 C 10,0 C 96 % 1014,3 hPa 0,0 l/m 0 min 0 min 0,0 UV-I 149 W/m 10,3 km/h (2 Bft)
02.05.2014 09:28 10,4 C 10,0 C 96 % 1014,4 hPa 0,0 l/m 0 min 0 min 0,0 UV-I 158 W/m 7,7 km/h (2 Bft)
02.05.2014 09:30 10,5 C 10,0 C 96 % 1014,3 hPa 0,0 l/m 0 min 0 min 0,0 UV-I 169 W/m 15,4 km/h (3 Bft)
02.05.2014 09:32 10,6 C 10,0 C 96 % 1014,4 hPa 0,0 l/m 0 min 0 min 0,0 UV-I 197 W/m 7,7 km/h (2 Bft)
02.05.2014 09:34 10,7 C 10,0 C 96 % 1014,4 hPa 0,0 l/m 0 min 0 min 0,0 UV-I 207 W/m 0,0 km/h (0 Bft)
02.05.2014 09:36 10,8 C 10,6 C 96 % 1014,4 hPa 0,0 l/m 0 min 0 min 0,0 UV-I 211 W/m 12,9 km/h (3 Bft)
02.05.2014 09:38 10,8 C 10,6 C 95 % 1014,5 hPa 0,0 l/m 0 min 0 min 0,0 UV-I 232 W/m 5,1 km/h (1 Bft)
02.05.2014 09:40 10,8 C 10,6 C 95 % 1014,4 hPa 0,0 l/m 0 min 0 min 0,0 UV-I 269 W/m 18,0 km/h (3 Bft)
02.05.2014 09:42 10,7 C 10,6 C 95 % 1014,5 hPa 0,0 l/m 0 min 0 min 0,0 UV-I 253 W/m 23,2 km/h (4 Bft)
02.05.2014 09:44 10,7 C 10,6 C 94 % 1014,4 hPa 0,0 l/m 0 min 0 min 0,0 UV-I 269 W/m 23,2 km/h (4 Bft)
02.05.2014 09:46 10,7 C 10,6 C 94 % 1014,5 hPa 0,0 l/m 0 min 0 min 0,0 UV-I 283 W/m 25,7 km/h (4 Bft)
02.05.2014 09:48 10,7 C 10,6 C 93 % 1014,5 hPa 0,0 l/m 2 min 0 min 0,0 UV-I 315 W/m 28,3 km/h (4 Bft)
02.05.2014 09:50 10,8 C 10,6 C 93 % 1014,5 hPa 0,0 l/m 2 min 0 min 0,0 UV-I 415 W/m 23,2 km/h (4 Bft)
02.05.2014 09:52 10,8 C 10,6 C 93 % 1014,5 hPa 0,0 l/m 2 min 0 min 0,0 UV-I 315 W/m 20,6 km/h (4 Bft)
02.05.2014 09:54 10,8 C 10,6 C 92 % 1014,6 hPa 0,0 l/m 2 min 0 min 0,0 UV-I 316 W/m 18,0 km/h (3 Bft)
02.05.2014 09:56 11,0 C 11,1 C 92 % 1014,6 hPa 0,0 l/m 2 min 0 min 0,5 UV-I 366 W/m 12,9 km/h (3 Bft)
02.05.2014 09:58 11,2 C 11,1 C 93 % 1014,6 hPa 0,0 l/m 2 min 0 min 0,6 UV-I 411 W/m 7,7 km/h (2 Bft)
02.05.2014 10:00 11,4 C 11,7 C 93 % 1014,6 hPa 0,0 l/m 2 min 0 min 0,0 UV-I 320 W/m 12,9 km/h (3 Bft)
02.05.2014 10:02 11,4 C 11,7 C 92 % 1014,7 hPa 0,0 l/m 2 min 0 min 0,0 UV-I 329 W/m 15,4 km/h (3 Bft)
02.05.2014 10:06 11,3 C 11,1 C 92 % 1014,7 hPa 0,0 l/m 0 min 0 min 0,0 UV-I 181 W/m 15,4 km/h (3 Bft)
02.05.2014 10:08 11,2 C 11,1 C 91 % 1014,8 hPa 0,0 l/m 0 min 0 min 0,0 UV-I 185 W/m 15,4 km/h (3 Bft)
02.05.2014 10:10 11,2 C 10,6 C 92 % 1014,8 hPa 0,0 l/m 0 min 0 min 0,0 UV-I 146 W/m 10,3 km/h (2 Bft)
02.05.2014 10:12 11,2 C 10,6 C 92 % 1014,9 hPa 0,0 l/m 0 min 0 min 0,0 UV-I 141 W/m 18,0 km/h (3 Bft)
02.05.2014 10:14 11,1 C 10,6 C 91 % 1015,0 hPa 0,0 l/m 0 min 0 min 0,0 UV-I 123 W/m 20,6 km/h (4 Bft)
02.05.2014 10:16 11,1 C 10,6 C 92 % 1015,0 hPa 0,0 l/m 0 min 0 min 0,0 UV-I 107 W/m 12,9 km/h (3 Bft)
02.05.2014 10:18 11,1 C 10,6 C 92 % 1015,0 hPa 0,0 l/m 0 min 0 min 0,0 UV-I 132 W/m 12,9 km/h (3 Bft)
02.05.2014 10:20 11,0 C 10,6 C 92 % 1015,1 hPa 0,0 l/m 0 min 0 min 0,0 UV-I 193 W/m 15,4 km/h (3 Bft)
02.05.2014 10:22 10,9 C 10,6 C 92 % 1015,1 hPa 0,0 l/m 0 min 0 min 0,0 UV-I 260 W/m 15,4 km/h (3 Bft)
02.05.2014 10:24 10,9 C 10,6 C 92 % 1015,1 hPa 0,0 l/m 0 min 0 min 0,0 UV-I 258 W/m 7,7 km/h (2 Bft)
02.05.2014 10:26 11,1 C 11,1 C 92 % 1015,0 hPa 0,0 l/m 0 min 0 min 0,6 UV-I 304 W/m 12,9 km/h (3 Bft)
02.05.2014 10:28 11,1 C 11,1 C 92 % 1015,0 hPa 0,0 l/m 0 min 0 min 0,7 UV-I 276 W/m 12,9 km/h (3 Bft)
02.05.2014 10:30 11,2 C 11,1 C 91 % 1015,1 hPa 0,0 l/m 2 min 0 min 1,0 UV-I 357 W/m 15,4 km/h (3 Bft)
02.05.2014 10:32 11,2 C 11,7 C 91 % 1015,1 hPa 0,0 l/m 2 min 0 min 1,1 UV-I 357 W/m 12,9 km/h (3 Bft)
02.05.2014 10:34 11,3 C 11,7 C 91 % 1015,2 hPa 0,0 l/m 2 min 0 min 1,0 UV-I 422 W/m 15,4 km/h (3 Bft)
02.05.2014 10:36 11,4 C 12,2 C 91 % 1015,2 hPa 0,0 l/m 2 min 0 min 1,0 UV-I 399 W/m 15,4 km/h (3 Bft)
02.05.2014 10:38 11,6 C 12,2 C 91 % 1015,2 hPa 0,0 l/m 2 min 0 min 1,3 UV-I 471 W/m 20,6 km/h (4 Bft)
02.05.2014 10:40 11,7 C 12,2 C 90 % 1015,2 hPa 0,0 l/m 2 min 0 min 1,3 UV-I 403 W/m 10,3 km/h (2 Bft)
02.05.2014 10:42 11,8 C 12,2 C 90 % 1015,2 hPa 0,0 l/m 2 min 0 min 0,7 UV-I 403 W/m 5,1 km/h (1 Bft)
02.05.2014 10:44 11,9 C 12,2 C 90 % 1015,2 hPa 0,0 l/m 2 min 0 min 0,5 UV-I 367 W/m 20,6 km/h (4 Bft)
02.05.2014 10:46 11,9 C 11,7 C 89 % 1015,3 hPa 0,0 l/m 0 min 0 min 1,0 UV-I 322 W/m 18,0 km/h (3 Bft)
02.05.2014 10:48 11,8 C 11,7 C 89 % 1015,3 hPa 0,0 l/m 0 min 0 min 0,9 UV-I 320 W/m 10,3 km/h (2 Bft)
02.05.2014 10:50 11,9 C 12,2 C 89 % 1015,4 hPa 0,0 l/m 0 min 0 min 0,9 UV-I 290 W/m 7,7 km/h (2 Bft)
02.05.2014 10:52 12,0 C 12,2 C 89 % 1015,4 hPa 0,0 l/m 2 min 0 min 1,1 UV-I 424 W/m 18,0 km/h (3 Bft)
02.05.2014 10:54 12,0 C 12,2 C 89 % 1015,5 hPa 0,0 l/m 2 min 0 min 1,4 UV-I 480 W/m 15,4 km/h (3 Bft)
02.05.2014 10:56 12,0 C 12,2 C 88 % 1015,4 hPa 0,0 l/m 2 min 0 min 1,2 UV-I 431 W/m 12,9 km/h (3 Bft)
02.05.2014 10:58 12,1 C 12,2 C 88 % 1015,5 hPa 0,0 l/m 0 min 0 min 1,0 UV-I 359 W/m 25,7 km/h (4 Bft)
02.05.2014 11:00 12,2 C 12,8 C 88 % 1015,5 hPa 0,0 l/m 2 min 0 min 1,0 UV-I 394 W/m 15,4 km/h (3 Bft)
02.05.2014 11:02 12,3 C 12,8 C 87 % 1015,6 hPa 0,0 l/m 2 min 0 min 1,0 UV-I 506 W/m 15,4 km/h (3 Bft)
02.05.2014 11:06 12,3 C 12,2 C 87 % 1015,7 hPa 0,0 l/m 0 min 0 min 0,9 UV-I 330 W/m 18,0 km/h (3 Bft)
02.05.2014 11:08 12,4 C 12,8 C 87 % 1015,7 hPa 0,0 l/m 2 min 0 min 1,0 UV-I 392 W/m 10,3 km/h (2 Bft)
02.05.2014 11:10 12,4 C 12,8 C 86 % 1015,7 hPa 0,0 l/m 2 min 0 min 1,0 UV-I 392 W/m 18,0 km/h (3 Bft)
02.05.2014 11:12 12,3 C 12,8 C 86 % 1015,7 hPa 0,0 l/m 2 min 0 min 0,8 UV-I 392 W/m 12,9 km/h (3 Bft)
02.05.2014 11:14 12,3 C 12,2 C 86 % 1015,7 hPa 0,0 l/m 0 min 0 min 0,7 UV-I 288 W/m 20,6 km/h (4 Bft)
02.05.2014 11:16 12,2 C 12,2 C 85 % 1015,7 hPa 0,0 l/m 0 min 0 min 0,7 UV-I 315 W/m 18,0 km/h (3 Bft)
02.05.2014 11:18 12,2 C 12,2 C 86 % 1015,8 hPa 0,0 l/m 0 min 0 min 0,6 UV-I 265 W/m 18,0 km/h (3 Bft)
02.05.2014 11:20 12,2 C 12,2 C 86 % 1015,8 hPa 0,0 l/m 0 min 0 min 0,5 UV-I 272 W/m 18,0 km/h (3 Bft)
02.05.2014 11:22 12,2 C 12,2 C 86 % 1015,8 hPa 0,0 l/m 0 min 0 min 0,0 UV-I 237 W/m 18,0 km/h (3 Bft)
02.05.2014 11:24 12,2 C 12,2 C 86 % 1015,8 hPa 0,0 l/m 0 min 0 min 0,6 UV-I 250 W/m 18,0 km/h (3 Bft)
02.05.2014 11:26 12,2 C 12,2 C 86 % 1015,9 hPa 0,0 l/m 0 min 0 min 1,0 UV-I 329 W/m 18,0 km/h (3 Bft)
02.05.2014 11:28 12,1 C 12,2 C 86 % 1015,9 hPa 0,0 l/m 0 min 0 min 1,0 UV-I 330 W/m 18,0 km/h (3 Bft)
02.05.2014 11:30 12,1 C 12,2 C 86 % 1015,9 hPa 0,0 l/m 0 min 0 min 1,1 UV-I 345 W/m 20,6 km/h (4 Bft)
02.05.2014 11:32 12,1 C 12,2 C 85 % 1015,9 hPa 0,0 l/m 0 min 0 min 1,4 UV-I 388 W/m 23,2 km/h (4 Bft)
02.05.2014 11:34 12,1 C 12,2 C 84 % 1016,0 hPa 0,0 l/m 0 min 0 min 1,3 UV-I 387 W/m 30,9 km/h (5 Bft)
02.05.2014 11:36 12,1 C 12,2 C 84 % 1015,9 hPa 0,0 l/m 2 min 0 min 1,4 UV-I 425 W/m 20,6 km/h (4 Bft)
02.05.2014 11:38 12,1 C 12,2 C 84 % 1015,9 hPa 0,0 l/m 0 min 0 min 0,9 UV-I 338 W/m 12,9 km/h (3 Bft)
02.05.2014 11:40 12,2 C 12,2 C 84 % 1016,0 hPa 0,0 l/m 0 min 0 min 0,8 UV-I 301 W/m 25,7 km/h (4 Bft)
02.05.2014 11:42 12,1 C 12,2 C 84 % 1016,0 hPa 0,0 l/m 0 min 0 min 0,7 UV-I 274 W/m 23,2 km/h (4 Bft)
02.05.2014 11:44 12,1 C 12,2 C 84 % 1016,0 hPa 0,0 l/m 0 min 0 min 0,7 UV-I 271 W/m 20,6 km/h (4 Bft)
02.05.2014 11:46 12,1 C 11,7 C 84 % 1016,0 hPa 0,0 l/m 0 min 0 min 0,5 UV-I 248 W/m 18,0 km/h (3 Bft)
02.05.2014 11:48 11,9 C 11,7 C 84 % 1016,0 hPa 0,0 l/m 0 min 0 min 0,0 UV-I 206 W/m 25,7 km/h (4 Bft)
02.05.2014 11:50 11,9 C 11,7 C 84 % 1016,0 hPa 0,0 l/m 0 min 0 min 0,7 UV-I 251 W/m 18,0 km/h (3 Bft)
02.05.2014 11:52 11,8 C 11,7 C 84 % 1016,1 hPa 0,0 l/m 0 min 0 min 0,9 UV-I 278 W/m 15,4 km/h (3 Bft)
02.05.2014 11:54 11,8 C 11,7 C 84 % 1016,1 hPa 0,0 l/m 0 min 0 min 0,8 UV-I 251 W/m 18,0 km/h (3 Bft)
02.05.2014 11:56 11,8 C 11,7 C 85 % 1016,2 hPa 0,0 l/m 0 min 0 min 0,8 UV-I 250 W/m 15,4 km/h (3 Bft)
02.05.2014 11:58 11,8 C 11,7 C 85 % 1016,2 hPa 0,0 l/m 0 min 0 min 0,9 UV-I 267 W/m 15,4 km/h (3 Bft)
02.05.2014 12:00 11,8 C 11,7 C 85 % 1016,3 hPa 0,0 l/m 0 min 0 min 0,8 UV-I 251 W/m 12,9 km/h (3 Bft)
02.05.2014 12:02 11,8 C 11,7 C 85 % 1016,3 hPa 0,0 l/m 0 min 0 min 0,7 UV-I 244 W/m 15,4 km/h (3 Bft)
02.05.2014 12:06 11,9 C 11,7 C 85 % 1016,4 hPa 0,0 l/m 0 min 0 min 0,6 UV-I 221 W/m 25,7 km/h (4 Bft)
02.05.2014 12:08 11,8 C 11,7 C 84 % 1016,4 hPa 0,0 l/m 0 min 0 min 0,0 UV-I 186 W/m 20,6 km/h (4 Bft)
02.05.2014 12:10 11,7 C 11,7 C 84 % 1016,4 hPa 0,0 l/m 0 min 0 min 0,0 UV-I 178 W/m 20,6 km/h (4 Bft)
02.05.2014 12:12 11,6 C 11,7 C 84 % 1016,4 hPa 0,0 l/m 0 min 0 min 0,0 UV-I 188 W/m 18,0 km/h (3 Bft)
02.05.2014 12:14 11,6 C 11,1 C 84 % 1016,5 hPa 0,0 l/m 0 min 0 min 0,5 UV-I 214 W/m 23,2 km/h (4 Bft)
02.05.2014 12:16 11,5 C 11,7 C 85 % 1016,4 hPa 0,0 l/m 0 min 0 min 0,6 UV-I 229 W/m 12,9 km/h (3 Bft)
02.05.2014 12:18 11,6 C 11,7 C 85 % 1016,5 hPa 0,0 l/m 0 min 0 min 0,5 UV-I 223 W/m 20,6 km/h (4 Bft)
02.05.2014 12:20 11,5 C 11,1 C 85 % 1016,6 hPa 0,0 l/m 0 min 0 min 0,5 UV-I 227 W/m 25,7 km/h (4 Bft)
02.05.2014 12:22 11,5 C 11,1 C 85 % 1016,6 hPa 0,0 l/m 0 min 0 min 0,6 UV-I 248 W/m 20,6 km/h (4 Bft)
02.05.2014 12:24 11,5 C 11,7 C 85 % 1016,6 hPa 0,0 l/m 0 min 0 min 0,7 UV-I 255 W/m 18,0 km/h (3 Bft)
02.05.2014 12:26 11,5 C 11,7 C 85 % 1016,6 hPa 0,0 l/m 0 min 0 min 0,5 UV-I 230 W/m 18,0 km/h (3 Bft)
02.05.2014 12:28 11,5 C 11,1 C 85 % 1016,7 hPa 0,0 l/m 0 min 0 min 0,0 UV-I 200 W/m 20,6 km/h (4 Bft)
02.05.2014 12:30 11,4 C 11,1 C 85 % 1016,6 hPa 0,0 l/m 0 min 0 min 0,0 UV-I 174 W/m 18,0 km/h (3 Bft)
02.05.2014 12:32 11,4 C 11,1 C 85 % 1016,6 hPa 0,0 l/m 0 min 0 min 0,0 UV-I 165 W/m 10,3 km/h (2 Bft)
02.05.2014 12:34 11,4 C 11,1 C 85 % 1016,6 hPa 0,0 l/m 0 min 0 min 0,0 UV-I 179 W/m 20,6 km/h (4 Bft)
02.05.2014 12:36 11,3 C 11,1 C 85 % 1016,6 hPa 0,0 l/m 0 min 0 min 0,0 UV-I 186 W/m 20,6 km/h (4 Bft)
02.05.2014 12:38 11,3 C 11,1 C 85 % 1016,7 hPa 0,0 l/m 0 min 0 min 0,0 UV-I 181 W/m 15,4 km/h (3 Bft)
02.05.2014 12:40 11,3 C 11,1 C 86 % 1016,7 hPa 0,0 l/m 0 min 0 min 0,5 UV-I 193 W/m 20,6 km/h (4 Bft)
02.05.2014 12:42 11,3 C 11,1 C 85 % 1016,7 hPa 0,0 l/m 0 min 0 min 0,5 UV-I 188 W/m 18,0 km/h (3 Bft)
02.05.2014 12:44 11,2 C 11,1 C 85 % 1016,7 hPa 0,0 l/m 0 min 0 min 0,0 UV-I 179 W/m 15,4 km/h (3 Bft)
02.05.2014 12:46 11,3 C 11,1 C 86 % 1016,6 hPa 0,0 l/m 0 min 0 min 0,5 UV-I 190 W/m 18,0 km/h (3 Bft)
02.05.2014 12:48 11,3 C 11,1 C 86 % 1016,7 hPa 0,0 l/m 0 min 0 min 0,5 UV-I 200 W/m 18,0 km/h (3 Bft)
02.05.2014 12:50 11,3 C 11,1 C 86 % 1016,7 hPa 0,0 l/m 0 min 0 min 0,6 UV-I 214 W/m 15,4 km/h (3 Bft)
02.05.2014 12:52 11,3 C 11,1 C 86 % 1016,6 hPa 0,0 l/m 0 min 0 min 0,5 UV-I 213 W/m 18,0 km/h (3 Bft)
02.05.2014 12:54 11,3 C 11,1 C 86 % 1016,7 hPa 0,0 l/m 0 min 0 min 0,6 UV-I 227 W/m 12,9 km/h (3 Bft)
02.05.2014 12:56 11,4 C 11,7 C 86 % 1016,7 hPa 0,0 l/m 0 min 0 min 0,6 UV-I 221 W/m 12,9 km/h (3 Bft)
02.05.2014 12:58 11,4 C 11,7 C 86 % 1016,7 hPa 0,0 l/m 0 min 0 min 0,0 UV-I 186 W/m 12,9 km/h (3 Bft)
02.05.2014 13:00 11,4 C 11,1 C 86 % 1016,7 hPa 0,0 l/m 0 min 0 min 0,0 UV-I 185 W/m 18,0 km/h (3 Bft)
02.05.2014 13:02 11,4 C 11,1 C 86 % 1016,7 hPa 0,0 l/m 0 min 0 min 0,0 UV-I 199 W/m 18,0 km/h (3 Bft)
02.05.2014 13:06 11,4 C 11,1 C 86 % 1016,7 hPa 0,0 l/m 0 min 0 min 0,0 UV-I 200 W/m 23,2 km/h (4 Bft)
02.05.2014 13:08 11,3 C 11,1 C 86 % 1016,8 hPa 0,0 l/m 0 min 0 min 0,0 UV-I 188 W/m 18,0 km/h (3 Bft)
02.05.2014 13:10 11,3 C 11,1 C 86 % 1016,8 hPa 0,0 l/m 0 min 0 min 0,0 UV-I 151 W/m 12,9 km/h (3 Bft)
02.05.2014 13:12 11,2 C 10,6 C 86 % 1016,8 hPa 0,0 l/m 0 min 0 min 0,0 UV-I 125 W/m 23,2 km/h (4 Bft)
02.05.2014 13:14 11,1 C 10,6 C 86 % 1016,8 hPa 0,0 l/m 0 min 0 min 0,0 UV-I 121 W/m 15,4 km/h (3 Bft)
02.05.2014 13:16 11,1 C 10,6 C 86 % 1016,9 hPa 0,0 l/m 0 min 0 min 0,0 UV-I 125 W/m 18,0 km/h (3 Bft)
02.05.2014 13:18 11,1 C 10,6 C 87 % 1016,9 hPa 0,0 l/m 0 min 0 min 0,0 UV-I 155 W/m 10,3 km/h (2 Bft)
02.05.2014 13:20 11,1 C 10,6 C 87 % 1016,9 hPa 0,0 l/m 0 min 0 min 0,0 UV-I 156 W/m 18,0 km/h (3 Bft)
02.05.2014 13:22 11,1 C 10,6 C 87 % 1016,9 hPa 0,0 l/m 0 min 0 min 0,0 UV-I 162 W/m 18,0 km/h (3 Bft)
02.05.2014 13:24 11,0 C 10,6 C 87 % 1016,9 hPa 0,0 l/m 0 min 0 min 0,0 UV-I 139 W/m 20,6 km/h (4 Bft)
02.05.2014 13:26 11,0 C 10,6 C 87 % 1016,9 hPa 0,0 l/m 0 min 0 min 0,0 UV-I 127 W/m 15,4 km/h (3 Bft)
02.05.2014 13:28 11,0 C 10,6 C 87 % 1017,0 hPa 0,0 l/m 0 min 0 min 0,0 UV-I 113 W/m 15,4 km/h (3 Bft)
02.05.2014 13:30 11,0 C 10,6 C 87 % 1017,0 hPa 0,0 l/m 0 min 0 min 0,0 UV-I 114 W/m 12,9 km/h (3 Bft)
02.05.2014 13:32 10,9 C 10,6 C 87 % 1017,0 hPa 0,0 l/m 0 min 0 min 0,0 UV-I 125 W/m 18,0 km/h (3 Bft)
02.05.2014 13:34 10,9 C 10,6 C 87 % 1017,0 hPa 0,0 l/m 0 min 0 min 0,0 UV-I 134 W/m 28,3 km/h (4 Bft)
02.05.2014 13:36 10,8 C 10,6 C 87 % 1017,0 hPa 0,0 l/m 0 min 0 min 0,0 UV-I 127 W/m 33,5 km/h (5 Bft)
02.05.2014 13:38 10,8 C 10,0 C 87 % 1017,0 hPa 0,0 l/m 0 min 0 min 0,0 UV-I 127 W/m 20,6 km/h (4 Bft)
02.05.2014 13:40 10,7 C 10,0 C 87 % 1017,1 hPa 0,0 l/m 0 min 0 min 0,0 UV-I 151 W/m 23,2 km/h (4 Bft)
02.05.2014 13:42 10,7 C 10,6 C 87 % 1017,1 hPa 0,0 l/m 0 min 0 min 0,0 UV-I 162 W/m 18,0 km/h (3 Bft)
02.05.2014 13:44 10,8 C 10,6 C 87 % 1017,1 hPa 0,0 l/m 0 min 0 min 0,0 UV-I 162 W/m 18,0 km/h (3 Bft)
02.05.2014 13:46 10,8 C 10,6 C 87 % 1017,1 hPa 0,0 l/m 0 min 0 min 0,0 UV-I 148 W/m 15,4 km/h (3 Bft)
02.05.2014 13:48 10,8 C 10,6 C 87 % 1017,1 hPa 0,0 l/m 0 min 0 min 0,0 UV-I 142 W/m 15,4 km/h (3 Bft)
02.05.2014 13:50 10,8 C 10,6 C 87 % 1017,2 hPa 0,0 l/m 0 min 0 min 0,0 UV-I 123 W/m 20,6 km/h (4 Bft)
02.05.2014 13:52 10,8 C 10,0 C 87 % 1017,2 hPa 0,0 l/m 0 min 0 min 0,0 UV-I 128 W/m 20,6 km/h (4 Bft)
02.05.2014 13:54 10,7 C 10,0 C 87 % 1017,2 hPa 0,0 l/m 0 min 0 min 0,0 UV-I 132 W/m 23,2 km/h (4 Bft)
02.05.2014 13:56 10,7 C 10,0 C 87 % 1017,2 hPa 0,0 l/m 0 min 0 min 0,0 UV-I 139 W/m 15,4 km/h (3 Bft)
02.05.2014 13:58 10,7 C 10,6 C 87 % 1017,2 hPa 0,0 l/m 0 min 0 min 0,0 UV-I 176 W/m 15,4 km/h (3 Bft)
02.05.2014 14:00 10,8 C 10,6 C 87 % 1017,3 hPa 0,0 l/m 0 min 0 min 0,0 UV-I 192 W/m 15,4 km/h (3 Bft)
02.05.2014 14:02 10,8 C 10,6 C 87 % 1017,2 hPa 0,0 l/m 0 min 0 min 0,5 UV-I 214 W/m 18,0 km/h (3 Bft)
02.05.2014 14:06 10,9 C 11,1 C 87 % 1017,3 hPa 0,0 l/m 0 min 0 min 0,7 UV-I 260 W/m 20,6 km/h (4 Bft)
02.05.2014 14:08 10,9 C 11,1 C 87 % 1017,3 hPa 0,0 l/m 0 min 0 min 0,7 UV-I 253 W/m 23,2 km/h (4 Bft)
02.05.2014 14:10 10,9 C 11,1 C 86 % 1017,3 hPa 0,0 l/m 0 min 0 min 0,7 UV-I 239 W/m 23,2 km/h (4 Bft)
02.05.2014 14:12 10,9 C 11,1 C 87 % 1017,3 hPa 0,0 l/m 0 min 0 min 0,7 UV-I 229 W/m 12,9 km/h (3 Bft)
02.05.2014 14:14 11,0 C 11,1 C 86 % 1017,3 hPa 0,0 l/m 0 min 0 min 0,8 UV-I 227 W/m 20,6 km/h (4 Bft)
02.05.2014 14:16 11,1 C 11,1 C 87 % 1017,3 hPa 0,0 l/m 0 min 0 min 0,5 UV-I 188 W/m 18,0 km/h (3 Bft)
02.05.2014 14:18 11,1 C 11,1 C 86 % 1017,3 hPa 0,0 l/m 0 min 0 min 0,5 UV-I 190 W/m 15,4 km/h (3 Bft)
02.05.2014 14:20 11,1 C 10,6 C 86 % 1017,3 hPa 0,0 l/m 0 min 0 min 0,0 UV-I 153 W/m 18,0 km/h (3 Bft)
02.05.2014 14:22 11,1 C 10,6 C 86 % 1017,3 hPa 0,0 l/m 0 min 0 min 0,0 UV-I 153 W/m 15,4 km/h (3 Bft)
02.05.2014 14:24 11,0 C 10,6 C 86 % 1017,4 hPa 0,0 l/m 0 min 0 min 0,0 UV-I 135 W/m 15,4 km/h (3 Bft)
02.05.2014 14:26 11,0 C 10,6 C 87 % 1017,4 hPa 0,0 l/m 0 min 0 min 0,0 UV-I 120 W/m 18,0 km/h (3 Bft)
02.05.2014 14:28 10,9 C 10,6 C 87 % 1017,4 hPa 0,0 l/m 0 min 0 min 0,0 UV-I 111 W/m 15,4 km/h (3 Bft)
02.05.2014 14:30 10,9 C 10,6 C 87 % 1017,5 hPa 0,0 l/m 0 min 0 min 0,0 UV-I 109 W/m 20,6 km/h (4 Bft)
02.05.2014 14:32 10,9 C 10,6 C 87 % 1017,4 hPa 0,0 l/m 0 min 0 min 0,0 UV-I 120 W/m 18,0 km/h (3 Bft)
02.05.2014 14:34 10,8 C 10,6 C 86 % 1017,4 hPa 0,0 l/m 0 min 0 min 0,0 UV-I 127 W/m 23,2 km/h (4 Bft)
02.05.2014 14:36 10,8 C 10,6 C 87 % 1017,4 hPa 0,0 l/m 0 min 0 min 0,0 UV-I 120 W/m 18,0 km/h (3 Bft)
02.05.2014 14:38 10,8 C 10,6 C 87 % 1017,5 hPa 0,0 l/m 0 min 0 min 0,0 UV-I 130 W/m 23,2 km/h (4 Bft)
02.05.2014 14:40 10,8 C 10,0 C 86 % 1017,4 hPa 0,0 l/m 0 min 0 min 0,0 UV-I 111 W/m 25,7 km/h (4 Bft)
02.05.2014 14:42 10,7 C 10,0 C 87 % 1017,5 hPa 0,0 l/m 0 min 0 min 0,0 UV-I 120 W/m 23,2 km/h (4 Bft)
02.05.2014 14:44 10,7 C 10,6 C 87 % 1017,5 hPa 0,0 l/m 0 min 0 min 0,0 UV-I 156 W/m 20,6 km/h (4 Bft)
02.05.2014 14:46 10,7 C 10,6 C 88 % 1017,6 hPa 0,0 l/m 0 min 0 min 0,0 UV-I 130 W/m 18,0 km/h (3 Bft)
02.05.2014 14:48 10,7 C 10,6 C 88 % 1017,5 hPa 0,0 l/m 0 min 0 min 0,0 UV-I 134 W/m 7,7 km/h (2 Bft)
02.05.2014 14:50 10,7 C 10,6 C 88 % 1017,6 hPa 0,0 l/m 0 min 0 min 0,0 UV-I 104 W/m 5,1 km/h (1 Bft)
02.05.2014 14:52 10,8 C 10,6 C 88 % 1017,6 hPa 0,0 l/m 0 min 0 min 0,0 UV-I 102 W/m 12,9 km/h (3 Bft)
02.05.2014 14:54 10,8 C 10,6 C 88 % 1017,6 hPa 0,0 l/m 0 min 0 min 0,0 UV-I 104 W/m 15,4 km/h (3 Bft)
02.05.2014 14:56 10,7 C 10,0 C 88 % 1017,6 hPa 0,0 l/m 0 min 0 min 0,0 UV-I 90 W/m 18,0 km/h (3 Bft)
02.05.2014 14:58 10,7 C 10,0 C 88 % 1017,7 hPa 0,0 l/m 0 min 0 min 0,0 UV-I 86 W/m 20,6 km/h (4 Bft)
02.05.2014 15:00 10,6 C 10,0 C 88 % 1017,7 hPa 0,0 l/m 0 min 0 min 0,0 UV-I 90 W/m 20,6 km/h (4 Bft)
02.05.2014 15:02 10,6 C 10,0 C 88 % 1017,7 hPa 0,0 l/m 0 min 0 min 0,0 UV-I 84 W/m 25,7 km/h (4 Bft)
02.05.2014 15:06 10,4 C 10,0 C 88 % 1017,7 hPa 0,0 l/m 0 min 0 min 0,0 UV-I 70 W/m 25,7 km/h (4 Bft)
02.05.2014 15:08 10,4 C 10,0 C 88 % 1017,8 hPa 0,0 l/m 0 min 0 min 0,0 UV-I 83 W/m 23,2 km/h (4 Bft)
02.05.2014 15:10 10,4 C 10,0 C 88 % 1017,8 hPa 0,0 l/m 0 min 0 min 0,0 UV-I 93 W/m 25,7 km/h (4 Bft)
02.05.2014 15:12 10,3 C 9,4 C 88 % 1017,7 hPa 0,0 l/m 0 min 0 min 0,0 UV-I 98 W/m 23,2 km/h (4 Bft)
02.05.2014 15:14 10,3 C 9,4 C 88 % 1017,8 hPa 0,0 l/m 0 min 0 min 0,0 UV-I 100 W/m 15,4 km/h (3 Bft)
02.05.2014 15:16 10,2 C 9,4 C 88 % 1017,8 hPa 0,0 l/m 0 min 0 min 0,0 UV-I 93 W/m 23,2 km/h (4 Bft)
02.05.2014 15:18 10,2 C 10,0 C 88 % 1017,9 hPa 0,0 l/m 0 min 0 min 0,0 UV-I 91 W/m 12,9 km/h (3 Bft)
02.05.2014 15:20 10,3 C 10,0 C 88 % 1017,9 hPa 0,0 l/m 0 min 0 min 0,0 UV-I 97 W/m 10,3 km/h (2 Bft)
02.05.2014 15:22 10,3 C 10,0 C 88 % 1017,9 hPa 0,0 l/m 0 min 0 min 0,0 UV-I 88 W/m 18,0 km/h (3 Bft)
02.05.2014 15:24 10,2 C 9,4 C 88 % 1018,0 hPa 0,0 l/m 0 min 0 min 0,0 UV-I 79 W/m 28,3 km/h (4 Bft)
02.05.2014 15:26 10,2 C 9,4 C 88 % 1017,9 hPa 0,0 l/m 0 min 0 min 0,0 UV-I 83 W/m 15,4 km/h (3 Bft)
02.05.2014 15:28 10,2 C 9,4 C 88 % 1017,9 hPa 0,0 l/m 0 min 0 min 0,0 UV-I 83 W/m 12,9 km/h (3 Bft)
02.05.2014 15:30 10,2 C 9,4 C 88 % 1017,9 hPa 0,0 l/m 0 min 0 min 0,0 UV-I 88 W/m 20,6 km/h (4 Bft)
02.05.2014 15:32 10,1 C 9,4 C 88 % 1017,9 hPa 0,0 l/m 0 min 0 min 0,0 UV-I 104 W/m 18,0 km/h (3 Bft)
02.05.2014 15:34 10,1 C 9,4 C 88 % 1017,9 hPa 0,0 l/m 0 min 0 min 0,0 UV-I 100 W/m 18,0 km/h (3 Bft)
02.05.2014 15:36 10,1 C 9,4 C 88 % 1017,9 hPa 0,0 l/m 0 min 0 min 0,0 UV-I 114 W/m 23,2 km/h (4 Bft)
02.05.2014 15:38 10,1 C 9,4 C 88 % 1017,9 hPa 0,0 l/m 0 min 0 min 0,0 UV-I 125 W/m 25,7 km/h (4 Bft)
02.05.2014 15:40 10,1 C 9,4 C 88 % 1017,9 hPa 0,0 l/m 0 min 0 min 0,0 UV-I 137 W/m 23,2 km/h (4 Bft)
02.05.2014 15:42 10,1 C 9,4 C 88 % 1018,0 hPa 0,0 l/m 0 min 0 min 0,0 UV-I 134 W/m 23,2 km/h (4 Bft)
02.05.2014 15:44 10,1 C 9,4 C 88 % 1018,0 hPa 0,0 l/m 0 min 0 min 0,0 UV-I 141 W/m 18,0 km/h (3 Bft)
02.05.2014 15:46 10,1 C 9,4 C 88 % 1018,0 hPa 0,0 l/m 0 min 0 min 0,0 UV-I 139 W/m 23,2 km/h (4 Bft)
02.05.2014 15:48 10,1 C 9,4 C 88 % 1018,0 hPa 0,0 l/m 0 min 0 min 0,0 UV-I 139 W/m 23,2 km/h (4 Bft)
02.05.2014 15:50 10,1 C 10,0 C 88 % 1017,9 hPa 0,0 l/m 0 min 0 min 0,0 UV-I 155 W/m 20,6 km/h (4 Bft)
02.05.2014 15:52 10,2 C 10,0 C 88 % 1017,9 hPa 0,0 l/m 0 min 0 min 0,0 UV-I 163 W/m 18,0 km/h (3 Bft)
02.05.2014 15:54 10,2 C 10,0 C 88 % 1017,9 hPa 0,0 l/m 0 min 0 min 0,0 UV-I 141 W/m 18,0 km/h (3 Bft)
02.05.2014 15:56 10,2 C 10,0 C 88 % 1018,1 hPa 0,0 l/m 0 min 0 min 0,0 UV-I 162 W/m 23,2 km/h (4 Bft)
02.05.2014 15:58 10,3 C 10,0 C 87 % 1018,0 hPa 0,0 l/m 0 min 0 min 0,0 UV-I 158 W/m 18,0 km/h (3 Bft)
02.05.2014 16:00 10,3 C 10,0 C 88 % 1018,2 hPa 0,0 l/m 0 min 0 min 0,0 UV-I 132 W/m 15,4 km/h (3 Bft)
02.05.2014 16:02 10,4 C 10,0 C 87 % 1018,1 hPa 0,0 l/m 0 min 0 min 0,0 UV-I 128 W/m 18,0 km/h (3 Bft)
02.05.2014 16:06 10,4 C 10,0 C 87 % 1018,2 hPa 0,0 l/m 0 min 0 min 0,0 UV-I 97 W/m 12,9 km/h (3 Bft)
02.05.2014 16:08 10,4 C 10,0 C 87 % 1018,2 hPa 0,0 l/m 0 min 0 min 0,0 UV-I 88 W/m 12,9 km/h (3 Bft)
02.05.2014 16:10 10,4 C 10,0 C 87 % 1018,2 hPa 0,0 l/m 0 min 0 min 0,0 UV-I 74 W/m 7,7 km/h (2 Bft)
02.05.2014 16:12 10,4 C 10,0 C 87 % 1018,2 hPa 0,0 l/m 0 min 0 min 0,0 UV-I 54 W/m 12,9 km/h (3 Bft)
02.05.2014 16:14 10,4 C 9,4 C 87 % 1018,2 hPa 0,0 l/m 0 min 0 min 0,0 UV-I 54 W/m 18,0 km/h (3 Bft)
02.05.2014 16:16 10,4 C 9,4 C 87 % 1018,2 hPa 0,0 l/m 0 min 0 min 0,0 UV-I 65 W/m 20,6 km/h (4 Bft)
02.05.2014 16:18 10,4 C 9,4 C 87 % 1018,2 hPa 0,0 l/m 0 min 0 min 0,0 UV-I 76 W/m 12,9 km/h (3 Bft)
02.05.2014 16:20 10,3 C 9,4 C 87 % 1018,2 hPa 0,0 l/m 0 min 0 min 0,0 UV-I 69 W/m 20,6 km/h (4 Bft)
02.05.2014 16:22 10,3 C 9,4 C 87 % 1018,2 hPa 0,0 l/m 0 min 0 min 0,0 UV-I 63 W/m 15,4 km/h (3 Bft)
02.05.2014 16:24 10,3 C 9,4 C 87 % 1018,2 hPa 0,0 l/m 0 min 0 min 0,0 UV-I 83 W/m 18,0 km/h (3 Bft)
02.05.2014 16:26 10,3 C 9,4 C 86 % 1018,2 hPa 0,0 l/m 0 min 0 min 0,0 UV-I 102 W/m 18,0 km/h (3 Bft)
02.05.2014 16:28 10,3 C 9,4 C 86 % 1018,3 hPa 0,0 l/m 0 min 0 min 0,0 UV-I 104 W/m 18,0 km/h (3 Bft)
02.05.2014 16:30 10,3 C 10,0 C 86 % 1018,3 hPa 0,0 l/m 0 min 0 min 0,0 UV-I 105 W/m 15,4 km/h (3 Bft)
02.05.2014 16:32 10,3 C 10,0 C 86 % 1018,3 hPa 0,0 l/m 0 min 0 min 0,0 UV-I 113 W/m 18,0 km/h (3 Bft)
02.05.2014 16:34 10,3 C 10,0 C 86 % 1018,3 hPa 0,0 l/m 0 min 0 min 0,0 UV-I 107 W/m 12,9 km/h (3 Bft)
02.05.2014 16:36 10,3 C 10,0 C 86 % 1018,3 hPa 0,0 l/m 0 min 0 min 0,0 UV-I 90 W/m 18,0 km/h (3 Bft)
02.05.2014 16:38 10,3 C 10,0 C 86 % 1018,3 hPa 0,0 l/m 0 min 0 min 0,0 UV-I 74 W/m 18,0 km/h (3 Bft)
02.05.2014 16:40 10,3 C 9,4 C 85 % 1018,4 hPa 0,0 l/m 0 min 0 min 0,0 UV-I 60 W/m 15,4 km/h (3 Bft)
02.05.2014 16:42 10,3 C 9,4 C 85 % 1018,4 hPa 0,0 l/m 0 min 0 min 0,0 UV-I 51 W/m 7,7 km/h (2 Bft)
02.05.2014 16:44 10,3 C 9,4 C 85 % 1018,4 hPa 0,0 l/m 0 min 0 min 0,0 UV-I 54 W/m 20,6 km/h (4 Bft)
02.05.2014 16:46 10,3 C 9,4 C 85 % 1018,4 hPa 0,0 l/m 0 min 0 min 0,0 UV-I 58 W/m 10,3 km/h (2 Bft)
02.05.2014 16:48 10,3 C 9,4 C 85 % 1018,5 hPa 0,0 l/m 0 min 0 min 0,0 UV-I 54 W/m 12,9 km/h (3 Bft)
02.05.2014 16:50 10,3 C 9,4 C 85 % 1018,5 hPa 0,0 l/m 0 min 0 min 0,0 UV-I 51 W/m 10,3 km/h (2 Bft)
02.05.2014 16:52 10,3 C 9,4 C 85 % 1018,5 hPa 0,0 l/m 0 min 0 min 0,0 UV-I 51 W/m 12,9 km/h (3 Bft)
02.05.2014 16:54 10,3 C 9,4 C 85 % 1018,5 hPa 0,0 l/m 0 min 0 min 0,0 UV-I 56 W/m 25,7 km/h (4 Bft)
02.05.2014 16:56 10,3 C 9,4 C 84 % 1018,5 hPa 0,0 l/m 0 min 0 min 0,0 UV-I 56 W/m 25,7 km/h (4 Bft)
02.05.2014 16:58 10,3 C 9,4 C 84 % 1018,5 hPa 0,0 l/m 0 min 0 min 0,0 UV-I 54 W/m 12,9 km/h (3 Bft)
02.05.2014 17:00 10,3 C 9,4 C 84 % 1018,6 hPa 0,0 l/m 0 min 0 min 0,0 UV-I 62 W/m 12,9 km/h (3 Bft)
02.05.2014 17:02 10,3 C 9,4 C 84 % 1018,6 hPa 0,0 l/m 0 min 0 min 0,0 UV-I 60 W/m 28,3 km/h (4 Bft)
02.05.2014 17:06 10,3 C 9,4 C 85 % 1018,6 hPa 0,0 l/m 0 min 0 min 0,0 UV-I 58 W/m 7,7 km/h (2 Bft)
02.05.2014 17:08 10,3 C 9,4 C 84 % 1018,6 hPa 0,0 l/m 0 min 0 min 0,0 UV-I 60 W/m 18,0 km/h (3 Bft)
02.05.2014 17:10 10,3 C 9,4 C 84 % 1018,6 hPa 0,0 l/m 0 min 0 min 0,0 UV-I 60 W/m 18,0 km/h (3 Bft)
02.05.2014 17:12 10,3 C 9,4 C 83 % 1018,6 hPa 0,0 l/m 0 min 0 min 0,0 UV-I 62 W/m 20,6 km/h (4 Bft)
02.05.2014 17:14 10,2 C 9,4 C 83 % 1018,6 hPa 0,0 l/m 0 min 0 min 0,0 UV-I 63 W/m 12,9 km/h (3 Bft)
02.05.2014 17:16 10,3 C 9,4 C 83 % 1018,6 hPa 0,0 l/m 0 min 0 min 0,0 UV-I 69 W/m 18,0 km/h (3 Bft)
02.05.2014 17:18 10,3 C 9,4 C 83 % 1018,6 hPa 0,0 l/m 0 min 0 min 0,0 UV-I 70 W/m 20,6 km/h (4 Bft)
02.05.2014 17:20 10,3 C 9,4 C 83 % 1018,6 hPa 0,0 l/m 0 min 0 min 0,0 UV-I 69 W/m 10,3 km/h (2 Bft)
02.05.2014 17:22 10,3 C 9,4 C 83 % 1018,6 hPa 0,0 l/m 0 min 0 min 0,0 UV-I 67 W/m 20,6 km/h (4 Bft)
02.05.2014 17:24 10,3 C 9,4 C 83 % 1018,7 hPa 0,0 l/m 0 min 0 min 0,0 UV-I 63 W/m 18,0 km/h (3 Bft)
02.05.2014 17:26 10,3 C 9,4 C 82 % 1018,7 hPa 0,0 l/m 0 min 0 min 0,0 UV-I 63 W/m 18,0 km/h (3 Bft)
02.05.2014 17:28 10,3 C 9,4 C 82 % 1018,6 hPa 0,0 l/m 0 min 0 min 0,0 UV-I 63 W/m 18,0 km/h (3 Bft)
02.05.2014 17:30 10,3 C 9,4 C 82 % 1018,6 hPa 0,0 l/m 0 min 0 min 0,0 UV-I 60 W/m 10,3 km/h (2 Bft)
02.05.2014 17:32 10,3 C 9,4 C 82 % 1018,7 hPa 0,0 l/m 0 min 0 min 0,0 UV-I 56 W/m 20,6 km/h (4 Bft)
02.05.2014 17:34 10,3 C 9,4 C 82 % 1018,7 hPa 0,0 l/m 0 min 0 min 0,0 UV-I 51 W/m 20,6 km/h (4 Bft)
02.05.2014 17:36 10,3 C 9,4 C 81 % 1018,8 hPa 0,0 l/m 0 min 0 min 0,0 UV-I 49 W/m 20,6 km/h (4 Bft)
02.05.2014 17:38 10,2 C 9,4 C 81 % 1018,8 hPa 0,0 l/m 0 min 0 min 0,0 UV-I 49 W/m 15,4 km/h (3 Bft)
02.05.2014 17:40 10,2 C 9,4 C 81 % 1018,7 hPa 0,0 l/m 0 min 0 min 0,0 UV-I 51 W/m 25,7 km/h (4 Bft)
02.05.2014 17:42 10,2 C 9,4 C 81 % 1018,8 hPa 0,0 l/m 0 min 0 min 0,0 UV-I 53 W/m 23,2 km/h (4 Bft)
02.05.2014 17:44 10,2 C 9,4 C 81 % 1018,8 hPa 0,0 l/m 0 min 0 min 0,0 UV-I 51 W/m 15,4 km/h (3 Bft)
02.05.2014 17:46 10,2 C 9,4 C 81 % 1018,8 hPa 0,0 l/m 0 min 0 min 0,0 UV-I 51 W/m 18,0 km/h (3 Bft)
02.05.2014 17:48 10,2 C 9,4 C 81 % 1018,8 hPa 0,0 l/m 0 min 0 min 0,0 UV-I 51 W/m 12,9 km/h (3 Bft)
02.05.2014 17:50 10,2 C 9,4 C 81 % 1018,9 hPa 0,0 l/m 0 min 0 min 0,0 UV-I 53 W/m 7,7 km/h (2 Bft)
02.05.2014 17:52 10,2 C 9,4 C 81 % 1018,9 hPa 0,0 l/m 0 min 0 min 0,0 UV-I 54 W/m 23,2 km/h (4 Bft)
02.05.2014 17:54 10,2 C 9,4 C 81 % 1018,8 hPa 0,0 l/m 0 min 0 min 0,0 UV-I 56 W/m 23,2 km/h (4 Bft)
02.05.2014 17:56 10,2 C 9,4 C 81 % 1018,9 hPa 0,0 l/m 0 min 0 min 0,0 UV-I 58 W/m 10,3 km/h (2 Bft)
02.05.2014 17:58 10,2 C 9,4 C 81 % 1018,9 hPa 0,0 l/m 0 min 0 min 0,0 UV-I 62 W/m 25,7 km/h (4 Bft)
02.05.2014 18:00 10,2 C 9,4 C 80 % 1018,9 hPa 0,0 l/m 0 min 0 min 0,0 UV-I 67 W/m 18,0 km/h (3 Bft)
02.05.2014 18:02 10,2 C 9,4 C 80 % 1018,9 hPa 0,0 l/m 0 min 0 min 0,0 UV-I 67 W/m 12,9 km/h (3 Bft)
02.05.2014 18:06 10,2 C 9,4 C 80 % 1018,9 hPa 0,0 l/m 0 min 0 min 0,0 UV-I 70 W/m 15,4 km/h (3 Bft)
02.05.2014 18:08 10,2 C 9,4 C 81 % 1018,9 hPa 0,0 l/m 0 min 0 min 0,0 UV-I 70 W/m 18,0 km/h (3 Bft)
02.05.2014 18:10 10,2 C 9,4 C 80 % 1019,0 hPa 0,0 l/m 0 min 0 min 0,0 UV-I 70 W/m 12,9 km/h (3 Bft)
02.05.2014 18:12 10,3 C 9,4 C 80 % 1019,0 hPa 0,0 l/m 0 min 0 min 0,0 UV-I 67 W/m 23,2 km/h (4 Bft)
02.05.2014 18:14 10,3 C 9,4 C 80 % 1019,0 hPa 0,0 l/m 0 min 0 min 0,0 UV-I 63 W/m 18,0 km/h (3 Bft)
02.05.2014 18:16 10,3 C 9,4 C 79 % 1019,0 hPa 0,0 l/m 0 min 0 min 0,0 UV-I 62 W/m 20,6 km/h (4 Bft)
02.05.2014 18:18 10,3 C 9,4 C 79 % 1019,0 hPa 0,0 l/m 0 min 0 min 0,0 UV-I 62 W/m 15,4 km/h (3 Bft)
02.05.2014 18:20 10,3 C 9,4 C 79 % 1019,0 hPa 0,0 l/m 0 min 0 min 0,0 UV-I 63 W/m 18,0 km/h (3 Bft)
02.05.2014 18:22 10,3 C 9,4 C 79 % 1019,0 hPa 0,0 l/m 0 min 0 min 0,0 UV-I 62 W/m 23,2 km/h (4 Bft)
02.05.2014 18:24 10,3 C 9,4 C 79 % 1019,0 hPa 0,0 l/m 0 min 0 min 0,0 UV-I 53 W/m 15,4 km/h (3 Bft)
02.05.2014 18:26 10,3 C 9,4 C 79 % 1019,1 hPa 0,0 l/m 0 min 0 min 0,0 UV-I 47 W/m 12,9 km/h (3 Bft)
02.05.2014 18:28 10,3 C 9,4 C 79 % 1019,1 hPa 0,0 l/m 0 min 0 min 0,0 UV-I 44 W/m 10,3 km/h (2 Bft)
02.05.2014 18:30 10,2 C 9,4 C 79 % 1019,1 hPa 0,0 l/m 0 min 0 min 0,0 UV-I 42 W/m 15,4 km/h (3 Bft)
02.05.2014 18:32 10,2 C 9,4 C 79 % 1019,1 hPa 0,0 l/m 0 min 0 min 0,0 UV-I 42 W/m 18,0 km/h (3 Bft)
02.05.2014 18:34 10,2 C 9,4 C 79 % 1019,1 hPa 0,0 l/m 0 min 0 min 0,0 UV-I 40 W/m 15,4 km/h (3 Bft)
02.05.2014 18:36 10,2 C 9,4 C 79 % 1019,2 hPa 0,0 l/m 0 min 0 min 0,0 UV-I 39 W/m 18,0 km/h (3 Bft)
02.05.2014 18:38 10,2 C 9,4 C 79 % 1019,1 hPa 0,0 l/m 0 min 0 min 0,0 UV-I 39 W/m 18,0 km/h (3 Bft)
02.05.2014 18:40 10,2 C 9,4 C 78 % 1019,1 hPa 0,0 l/m 0 min 0 min 0,0 UV-I 39 W/m 15,4 km/h (3 Bft)
02.05.2014 18:42 10,2 C 9,4 C 79 % 1019,2 hPa 0,0 l/m 0 min 0 min 0,0 UV-I 37 W/m 15,4 km/h (3 Bft)
02.05.2014 18:44 10,2 C 9,4 C 79 % 1019,2 hPa 0,0 l/m 0 min 0 min 0,0 UV-I 35 W/m 18,0 km/h (3 Bft)
02.05.2014 18:46 10,2 C 9,4 C 79 % 1019,1 hPa 0,0 l/m 0 min 0 min 0,0 UV-I 33 W/m 18,0 km/h (3 Bft)
02.05.2014 18:48 10,2 C 9,4 C 79 % 1019,2 hPa 0,0 l/m 0 min 0 min 0,0 UV-I 33 W/m 10,3 km/h (2 Bft)
02.05.2014 18:50 10,2 C 9,4 C 79 % 1019,2 hPa 0,0 l/m 0 min 0 min 0,0 UV-I 33 W/m 15,4 km/h (3 Bft)
02.05.2014 18:52 10,1 C 9,4 C 79 % 1019,2 hPa 0,0 l/m 0 min 0 min 0,0 UV-I 32 W/m 15,4 km/h (3 Bft)
02.05.2014 18:54 10,1 C 9,4 C 79 % 1019,2 hPa 0,0 l/m 0 min 0 min 0,0 UV-I 32 W/m 10,3 km/h (2 Bft)
02.05.2014 18:56 10,1 C 9,4 C 79 % 1019,3 hPa 0,0 l/m 0 min 0 min 0,0 UV-I 30 W/m 15,4 km/h (3 Bft)
02.05.2014 18:58 10,1 C 9,4 C 79 % 1019,3 hPa 0,0 l/m 0 min 0 min 0,0 UV-I 28 W/m 20,6 km/h (4 Bft)
02.05.2014 19:00 10,1 C 9,4 C 79 % 1019,3 hPa 0,0 l/m 0 min 0 min 0,0 UV-I 26 W/m 12,9 km/h (3 Bft)
02.05.2014 19:02 10,1 C 8,9 C 79 % 1019,3 hPa 0,0 l/m 0 min 0 min 0,0 UV-I 25 W/m 10,3 km/h (2 Bft)
02.05.2014 19:06 10,1 C 8,9 C 79 % 1019,4 hPa 0,0 l/m 0 min 0 min 0,0 UV-I 21 W/m 23,2 km/h (4 Bft)
02.05.2014 19:08 10,1 C 8,9 C 78 % 1019,4 hPa 0,0 l/m 0 min 0 min 0,0 UV-I 21 W/m 15,4 km/h (3 Bft)
02.05.2014 19:10 10,1 C 8,9 C 78 % 1019,4 hPa 0,0 l/m 0 min 0 min 0,0 UV-I 19 W/m 15,4 km/h (3 Bft)
02.05.2014 19:12 10,1 C 8,9 C 79 % 1019,4 hPa 0,0 l/m 0 min 0 min 0,0 UV-I 19 W/m 20,6 km/h (4 Bft)
02.05.2014 19:14 10,1 C 8,9 C 79 % 1019,4 hPa 0,0 l/m 0 min 0 min 0,0 UV-I 19 W/m 18,0 km/h (3 Bft)
02.05.2014 19:16 10,0 C 8,9 C 79 % 1019,4 hPa 0,0 l/m 0 min 0 min 0,0 UV-I 19 W/m 12,9 km/h (3 Bft)
02.05.2014 19:18 10,0 C 8,9 C 79 % 1019,5 hPa 0,0 l/m 0 min 0 min 0,0 UV-I 18 W/m 18,0 km/h (3 Bft)
02.05.2014 19:20 10,0 C 8,9 C 78 % 1019,5 hPa 0,0 l/m 0 min 0 min 0,0 UV-I 16 W/m 18,0 km/h (3 Bft)
02.05.2014 19:22 10,0 C 8,9 C 78 % 1019,5 hPa 0,0 l/m 0 min 0 min 0,0 UV-I 14 W/m 12,9 km/h (3 Bft)
02.05.2014 19:24 10,0 C 8,9 C 78 % 1019,5 hPa 0,0 l/m 0 min 0 min 0,0 UV-I 14 W/m 15,4 km/h (3 Bft)
02.05.2014 19:26 10,0 C 8,9 C 78 % 1019,7 hPa 0,0 l/m 0 min 0 min 0,0 UV-I 14 W/m 10,3 km/h (2 Bft)
02.05.2014 19:28 10,0 C 8,9 C 78 % 1019,6 hPa 0,0 l/m 0 min 0 min 0,0 UV-I 14 W/m 10,3 km/h (2 Bft)
02.05.2014 19:30 9,9 C 8,9 C 79 % 1019,6 hPa 0,0 l/m 0 min 0 min 0,0 UV-I 12 W/m 10,3 km/h (2 Bft)
02.05.2014 19:32 9,9 C 8,9 C 78 % 1019,7 hPa 0,0 l/m 0 min 2 min 0,0 UV-I 12 W/m 12,9 km/h (3 Bft)
02.05.2014 19:34 9,9 C 8,9 C 78 % 1019,8 hPa 0,0 l/m 0 min 0 min 0,0 UV-I 12 W/m 18,0 km/h (3 Bft)
02.05.2014 19:36 9,9 C 8,9 C 78 % 1019,7 hPa 0,0 l/m 0 min 0 min 0,0 UV-I 12 W/m 12,9 km/h (3 Bft)
02.05.2014 19:38 9,9 C 8,9 C 78 % 1019,8 hPa 0,0 l/m 0 min 0 min 0,0 UV-I 12 W/m 15,4 km/h (3 Bft)
02.05.2014 19:40 9,9 C 8,9 C 79 % 1019,8 hPa 0,0 l/m 0 min 0 min 0,0 UV-I 12 W/m 0,0 km/h (0 Bft)
02.05.2014 19:42 9,8 C 8,9 C 79 % 1019,8 hPa 0,0 l/m 0 min 0 min 0,0 UV-I 12 W/m 18,0 km/h (3 Bft)
02.05.2014 19:44 9,8 C 8,9 C 79 % 1019,8 hPa 0,0 l/m 0 min 0 min 0,0 UV-I 12 W/m 10,3 km/h (2 Bft)
02.05.2014 19:46 9,8 C 8,9 C 79 % 1019,8 hPa 0,0 l/m 0 min 0 min 0,0 UV-I 11 W/m 7,7 km/h (2 Bft)
02.05.2014 19:48 9,8 C 8,9 C 79 % 1019,9 hPa 0,0 l/m 0 min 0 min 0,0 UV-I 11 W/m 7,7 km/h (2 Bft)
02.05.2014 19:50 9,8 C 8,9 C 79 % 1019,9 hPa 0,0 l/m 0 min 0 min 0,0 UV-I 11 W/m 0,0 km/h (0 Bft)
02.05.2014 19:52 9,8 C 8,9 C 79 % 1020,0 hPa 0,0 l/m 0 min 0 min 0,0 UV-I 11 W/m 2,6 km/h (1 Bft)
02.05.2014 19:54 9,8 C 8,9 C 79 % 1020,0 hPa 0,0 l/m 0 min 0 min 0,0 UV-I 9 W/m 7,7 km/h (2 Bft)
02.05.2014 19:56 9,7 C 8,9 C 79 % 1020,1 hPa 0,0 l/m 0 min 0 min 0,0 UV-I 9 W/m 5,1 km/h (1 Bft)
02.05.2014 19:58 9,7 C 8,9 C 79 % 1020,1 hPa 0,0 l/m 0 min 0 min 0,0 UV-I 9 W/m 7,7 km/h (2 Bft)
02.05.2014 20:00 9,7 C 8,9 C 80 % 1020,1 hPa 0,0 l/m 0 min 2 min 0,0 UV-I 7 W/m 10,3 km/h (2 Bft)
02.05.2014 20:02 9,7 C 8,9 C 79 % 1020,1 hPa 0,0 l/m 0 min 0 min 0,0 UV-I 7 W/m 18,0 km/h (3 Bft)
02.05.2014 20:06 9,7 C 8,9 C 79 % 1020,1 hPa 0,0 l/m 0 min 0 min 0,0 UV-I 5 W/m 15,4 km/h (3 Bft)
02.05.2014 20:08 9,7 C 8,3 C 79 % 1020,1 hPa 0,0 l/m 0 min 2 min 0,0 UV-I 5 W/m 15,4 km/h (3 Bft)
02.05.2014 20:10 9,7 C 8,3 C 79 % 1020,2 hPa 0,0 l/m 0 min 2 min 0,0 UV-I 5 W/m 15,4 km/h (3 Bft)
02.05.2014 20:12 9,7 C 7,8 C 80 % 1020,3 hPa 0,0 l/m 0 min 2 min 0,0 UV-I 5 W/m 10,3 km/h (2 Bft)
02.05.2014 20:14 9,7 C 7,8 C 80 % 1020,3 hPa 0,0 l/m 0 min 2 min 0,0 UV-I 7 W/m 20,6 km/h (4 Bft)
02.05.2014 20:16 9,6 C 7,2 C 80 % 1020,3 hPa 0,0 l/m 0 min 2 min 0,0 UV-I 5 W/m 18,0 km/h (3 Bft)
02.05.2014 20:18 9,6 C 7,2 C 81 % 1020,4 hPa 0,0 l/m 0 min 2 min 0,0 UV-I 5 W/m 18,0 km/h (3 Bft)
02.05.2014 20:20 9,5 C 7,2 C 81 % 1020,4 hPa 0,0 l/m 0 min 2 min 0,0 UV-I 5 W/m 18,0 km/h (3 Bft)
02.05.2014 20:22 9,4 C 7,2 C 82 % 1020,4 hPa 0,0 l/m 0 min 2 min 0,0 UV-I 5 W/m 12,9 km/h (3 Bft)
02.05.2014 20:24 9,4 C 7,2 C 82 % 1020,5 hPa 0,2 l/m 0 min 2 min 0,0 UV-I 5 W/m 7,7 km/h (2 Bft)
02.05.2014 20:26 9,3 C 7,2 C 83 % 1020,5 hPa 0,0 l/m 0 min 2 min 0,0 UV-I 0 W/m 7,7 km/h (2 Bft)
02.05.2014 20:28 9,2 C 7,2 C 84 % 1020,5 hPa 0,0 l/m 0 min 2 min 0,0 UV-I 0 W/m 12,9 km/h (3 Bft)
02.05.2014 20:30 9,2 C 6,7 C 84 % 1020,6 hPa 0,0 l/m 0 min 0 min 0,0 UV-I 0 W/m 15,4 km/h (3 Bft)
02.05.2014 20:32 9,2 C 6,7 C 84 % 1020,7 hPa 0,0 l/m 0 min 0 min 0,0 UV-I 0 W/m 12,9 km/h (3 Bft)
02.05.2014 20:34 9,1 C 6,7 C 84 % 1020,8 hPa 0,0 l/m 0 min 0 min 0,0 UV-I 0 W/m 5,1 km/h (1 Bft)
02.05.2014 20:36 9,1 C 6,7 C 85 % 1020,8 hPa 0,0 l/m 0 min 2 min 0,0 UV-I 0 W/m 15,4 km/h (3 Bft)
02.05.2014 20:38 9,0 C 6,7 C 85 % 1020,9 hPa 0,0 l/m 0 min 2 min 0,0 UV-I 0 W/m 23,2 km/h (4 Bft)
02.05.2014 20:40 8,8 C 6,7 C 85 % 1021,0 hPa 0,0 l/m 0 min 2 min 0,0 UV-I 0 W/m 12,9 km/h (3 Bft)
02.05.2014 20:42 8,7 C 6,7 C 86 % 1020,9 hPa 0,0 l/m 0 min 0 min 0,0 UV-I 0 W/m 15,4 km/h (3 Bft)
02.05.2014 20:44 8,6 C 6,7 C 86 % 1021,0 hPa 0,0 l/m 0 min 0 min 0,0 UV-I 0 W/m 10,3 km/h (2 Bft)
02.05.2014 20:46 8,4 C 6,7 C 86 % 1021,1 hPa 0,0 l/m 0 min 2 min 0,0 UV-I 0 W/m 10,3 km/h (2 Bft)
02.05.2014 20:48 8,3 C 6,7 C 87 % 1021,1 hPa 0,0 l/m 0 min 2 min 0,0 UV-I 0 W/m 12,9 km/h (3 Bft)
02.05.2014 20:50 8,3 C 6,7 C 87 % 1021,1 hPa 0,0 l/m 0 min 2 min 0,0 UV-I 0 W/m 15,4 km/h (3 Bft)
02.05.2014 20:52 8,2 C 6,7 C 87 % 1021,1 hPa 0,0 l/m 0 min 2 min 0,0 UV-I 0 W/m 20,6 km/h (4 Bft)
02.05.2014 20:54 8,2 C 6,1 C 87 % 1021,1 hPa 0,0 l/m 0 min 2 min 0,0 UV-I 0 W/m 12,9 km/h (3 Bft)
02.05.2014 20:56 8,1 C 6,7 C 87 % 1021,1 hPa 0,0 l/m 0 min 2 min 0,0 UV-I 0 W/m 15,4 km/h (3 Bft)
02.05.2014 20:58 8,1 C 6,1 C 87 % 1021,1 hPa 0,0 l/m 0 min 0 min 0,0 UV-I 0 W/m 15,4 km/h (3 Bft)
02.05.2014 21:00 8,1 C 6,1 C 87 % 1021,2 hPa 0,0 l/m 0 min 0 min 0,0 UV-I 0 W/m 0,0 km/h (0 Bft)
02.05.2014 21:02 8,1 C 6,7 C 87 % 1021,2 hPa 0,0 l/m 0 min 0 min 0,0 UV-I 0 W/m 10,3 km/h (2 Bft)
02.05.2014 21:06 8,1 C 6,7 C 87 % 1021,3 hPa 0,0 l/m 0 min 0 min 0,0 UV-I 0 W/m 10,3 km/h (2 Bft)
02.05.2014 21:08 8,1 C 6,7 C 87 % 1021,3 hPa 0,0 l/m 0 min 0 min 0,0 UV-I 0 W/m 12,9 km/h (3 Bft)
02.05.2014 21:10 8,1 C 6,7 C 87 % 1021,4 hPa 0,0 l/m 0 min 0 min 0,0 UV-I 0 W/m 12,9 km/h (3 Bft)
02.05.2014 21:12 8,1 C 6,7 C 87 % 1021,4 hPa 0,0 l/m 0 min 0 min 0,0 UV-I 0 W/m 5,1 km/h (1 Bft)
02.05.2014 21:14 8,1 C 6,7 C 87 % 1021,4 hPa 0,0 l/m 0 min 0 min 0,0 UV-I 0 W/m 12,9 km/h (3 Bft)
02.05.2014 21:16 8,1 C 6,7 C 87 % 1021,4 hPa 0,0 l/m 0 min 0 min 0,0 UV-I 0 W/m 20,6 km/h (4 Bft)
02.05.2014 21:18 8,1 C 6,7 C 86 % 1021,5 hPa 0,0 l/m 0 min 0 min 0,0 UV-I 0 W/m 12,9 km/h (3 Bft)
02.05.2014 21:20 8,1 C 6,7 C 86 % 1021,5 hPa 0,0 l/m 0 min 0 min 0,0 UV-I 0 W/m 12,9 km/h (3 Bft)
02.05.2014 21:22 8,1 C 6,7 C 86 % 1021,5 hPa 0,0 l/m 0 min 0 min 0,0 UV-I 0 W/m 12,9 km/h (3 Bft)
02.05.2014 21:24 8,1 C 6,7 C 86 % 1021,5 hPa 0,0 l/m 0 min 0 min 0,0 UV-I 0 W/m 7,7 km/h (2 Bft)
02.05.2014 21:26 8,1 C 6,7 C 86 % 1021,5 hPa 0,0 l/m 0 min 0 min 0,0 UV-I 0 W/m 10,3 km/h (2 Bft)
02.05.2014 21:28 8,1 C 6,7 C 86 % 1021,6 hPa 0,0 l/m 0 min 0 min 0,0 UV-I 0 W/m 12,9 km/h (3 Bft)
02.05.2014 21:30 8,1 C 6,7 C 85 % 1021,6 hPa 0,0 l/m 0 min 0 min 0,0 UV-I 0 W/m 7,7 km/h (2 Bft)
02.05.2014 21:32 8,1 C 6,7 C 85 % 1021,6 hPa 0,0 l/m 0 min 0 min 0,0 UV-I 0 W/m 0,0 km/h (0 Bft)
02.05.2014 21:34 8,1 C 6,7 C 85 % 1021,6 hPa 0,0 l/m 0 min 0 min 0,0 UV-I 0 W/m 7,7 km/h (2 Bft)
02.05.2014 21:36 8,1 C 6,7 C 85 % 1021,6 hPa 0,0 l/m 0 min 0 min 0,0 UV-I 0 W/m 12,9 km/h (3 Bft)
02.05.2014 21:38 8,1 C 6,7 C 85 % 1021,6 hPa 0,0 l/m 0 min 0 min 0,0 UV-I 0 W/m 7,7 km/h (2 Bft)
02.05.2014 21:40 8,1 C 6,7 C 85 % 1021,6 hPa 0,0 l/m 0 min 0 min 0,0 UV-I 0 W/m 18,0 km/h (3 Bft)
02.05.2014 21:42 8,1 C 6,7 C 84 % 1021,6 hPa 0,0 l/m 0 min 0 min 0,0 UV-I 0 W/m 10,3 km/h (2 Bft)
02.05.2014 21:44 8,1 C 6,7 C 84 % 1021,6 hPa 0,0 l/m 0 min 0 min 0,0 UV-I 0 W/m 7,7 km/h (2 Bft)
02.05.2014 21:46 8,1 C 6,7 C 84 % 1021,7 hPa 0,0 l/m 0 min 0 min 0,0 UV-I 0 W/m 7,7 km/h (2 Bft)
02.05.2014 21:48 8,1 C 6,7 C 84 % 1021,6 hPa 0,0 l/m 0 min 0 min 0,0 UV-I 0 W/m 5,1 km/h (1 Bft)
02.05.2014 21:50 8,1 C 6,7 C 84 % 1021,7 hPa 0,0 l/m 0 min 0 min 0,0 UV-I 0 W/m 7,7 km/h (2 Bft)
02.05.2014 21:52 8,1 C 6,7 C 84 % 1021,6 hPa 0,0 l/m 0 min 0 min 0,0 UV-I 0 W/m 15,4 km/h (3 Bft)
02.05.2014 21:54 8,1 C 6,7 C 84 % 1021,7 hPa 0,0 l/m 0 min 0 min 0,0 UV-I 0 W/m 10,3 km/h (2 Bft)
02.05.2014 21:56 8,1 C 6,7 C 84 % 1021,7 hPa 0,0 l/m 0 min 0 min 0,0 UV-I 0 W/m 7,7 km/h (2 Bft)
02.05.2014 21:58 8,1 C 6,7 C 84 % 1021,7 hPa 0,0 l/m 0 min 0 min 0,0 UV-I 0 W/m 5,1 km/h (1 Bft)
02.05.2014 22:00 8,1 C 6,7 C 84 % 1021,6 hPa 0,0 l/m 0 min 0 min 0,0 UV-I 0 W/m 5,1 km/h (1 Bft)
02.05.2014 22:02 8,1 C 6,7 C 84 % 1021,6 hPa 0,0 l/m 0 min 0 min 0,0 UV-I 0 W/m 12,9 km/h (3 Bft)
02.05.2014 22:06 8,1 C 6,7 C 84 % 1021,7 hPa 0,0 l/m 0 min 0 min 0,0 UV-I 0 W/m 0,0 km/h (0 Bft)
02.05.2014 22:08 8,1 C 6,7 C 84 % 1021,7 hPa 0,0 l/m 0 min 0 min 0,0 UV-I 0 W/m 0,0 km/h (0 Bft)
02.05.2014 22:10 8,1 C 6,7 C 84 % 1021,7 hPa 0,0 l/m 0 min 0 min 0,0 UV-I 0 W/m 0,0 km/h (0 Bft)
02.05.2014 22:12 8,1 C 6,7 C 84 % 1021,7 hPa 0,0 l/m 0 min 0 min 0,0 UV-I 0 W/m 0,0 km/h (0 Bft)
02.05.2014 22:14 8,1 C 6,7 C 84 % 1021,8 hPa 0,0 l/m 0 min 0 min 0,0 UV-I 0 W/m 0,0 km/h (0 Bft)
02.05.2014 22:16 8,1 C 6,7 C 84 % 1021,9 hPa 0,0 l/m 0 min 0 min 0,0 UV-I 0 W/m 0,0 km/h (0 Bft)
02.05.2014 22:18 8,1 C 6,7 C 84 % 1021,8 hPa 0,0 l/m 0 min 0 min 0,0 UV-I 0 W/m 5,1 km/h (1 Bft)
02.05.2014 22:20 8,1 C 6,7 C 83 % 1021,8 hPa 0,0 l/m 0 min 0 min 0,0 UV-I 0 W/m 0,0 km/h (0 Bft)
02.05.2014 22:22 8,1 C 6,7 C 83 % 1021,8 hPa 0,0 l/m 0 min 0 min 0,0 UV-I 0 W/m 2,6 km/h (1 Bft)
02.05.2014 22:24 8,1 C 6,7 C 83 % 1021,9 hPa 0,0 l/m 0 min 0 min 0,0 UV-I 0 W/m 0,0 km/h (0 Bft)
02.05.2014 22:26 8,1 C 6,7 C 83 % 1021,9 hPa 0,0 l/m 0 min 0 min 0,0 UV-I 0 W/m 0,0 km/h (0 Bft)
02.05.2014 22:28 8,1 C 6,7 C 83 % 1022,0 hPa 0,0 l/m 0 min 0 min 0,0 UV-I 0 W/m 2,6 km/h (1 Bft)
02.05.2014 22:30 8,1 C 6,7 C 83 % 1022,0 hPa 0,0 l/m 0 min 0 min 0,0 UV-I 0 W/m 0,0 km/h (0 Bft)
02.05.2014 22:32 8,1 C 6,7 C 83 % 1022,0 hPa 0,0 l/m 0 min 0 min 0,0 UV-I 0 W/m 10,3 km/h (2 Bft)
02.05.2014 22:34 8,1 C 6,7 C 83 % 1022,1 hPa 0,0 l/m 0 min 0 min 0,0 UV-I 0 W/m 2,6 km/h (1 Bft)
02.05.2014 22:36 8,1 C 7,2 C 83 % 1022,1 hPa 0,0 l/m 0 min 0 min 0,0 UV-I 0 W/m 0,0 km/h (0 Bft)
02.05.2014 22:38 8,1 C 7,2 C 83 % 1022,1 hPa 0,0 l/m 0 min 0 min 0,0 UV-I 0 W/m 7,7 km/h (2 Bft)
02.05.2014 22:40 8,1 C 7,2 C 83 % 1022,2 hPa 0,0 l/m 0 min 0 min 0,0 UV-I 0 W/m 10,3 km/h (2 Bft)
02.05.2014 22:42 8,2 C 7,2 C 83 % 1022,2 hPa 0,0 l/m 0 min 0 min 0,0 UV-I 0 W/m 5,1 km/h (1 Bft)
02.05.2014 22:44 8,1 C 7,2 C 83 % 1022,2 hPa 0,0 l/m 0 min 0 min 0,0 UV-I 0 W/m 7,7 km/h (2 Bft)
02.05.2014 22:46 8,2 C 7,2 C 83 % 1022,2 hPa 0,0 l/m 0 min 0 min 0,0 UV-I 0 W/m 10,3 km/h (2 Bft)
02.05.2014 22:48 8,2 C 7,2 C 83 % 1022,2 hPa 0,0 l/m 0 min 0 min 0,0 UV-I 0 W/m 5,1 km/h (1 Bft)
02.05.2014 22:50 8,1 C 7,2 C 83 % 1022,2 hPa 0,0 l/m 0 min 0 min 0,0 UV-I 0 W/m 12,9 km/h (3 Bft)
02.05.2014 22:52 8,1 C 7,2 C 83 % 1022,2 hPa 0,0 l/m 0 min 0 min 0,0 UV-I 0 W/m 7,7 km/h (2 Bft)
02.05.2014 22:54 8,2 C 7,2 C 83 % 1022,2 hPa 0,0 l/m 0 min 0 min 0,0 UV-I 0 W/m 10,3 km/h (2 Bft)
02.05.2014 22:56 8,2 C 7,2 C 83 % 1022,2 hPa 0,0 l/m 0 min 0 min 0,0 UV-I 0 W/m 12,9 km/h (3 Bft)
02.05.2014 22:58 8,2 C 7,2 C 83 % 1022,3 hPa 0,0 l/m 0 min 0 min 0,0 UV-I 0 W/m 12,9 km/h (3 Bft)
02.05.2014 23:00 8,2 C 7,2 C 83 % 1022,4 hPa 0,0 l/m 0 min 0 min 0,0 UV-I 0 W/m 12,9 km/h (3 Bft)
02.05.2014 23:02 8,2 C 7,2 C 82 % 1022,4 hPa 0,0 l/m 0 min 0 min 0,0 UV-I 0 W/m 10,3 km/h (2 Bft)
02.05.2014 23:06 8,2 C 7,2 C 83 % 1022,5 hPa 0,0 l/m 0 min 0 min 0,0 UV-I 0 W/m 0,0 km/h (0 Bft)
02.05.2014 23:08 8,2 C 7,2 C 83 % 1022,5 hPa 0,0 l/m 0 min 0 min 0,0 UV-I 0 W/m 12,9 km/h (3 Bft)
02.05.2014 23:10 8,2 C 7,2 C 83 % 1022,4 hPa 0,0 l/m 0 min 0 min 0,0 UV-I 0 W/m 7,7 km/h (2 Bft)
02.05.2014 23:12 8,2 C 7,2 C 83 % 1022,4 hPa 0,0 l/m 0 min 0 min 0,0 UV-I 0 W/m 5,1 km/h (1 Bft)
02.05.2014 23:14 8,2 C 7,2 C 83 % 1022,5 hPa 0,0 l/m 0 min 0 min 0,0 UV-I 0 W/m 10,3 km/h (2 Bft)
02.05.2014 23:16 8,2 C 7,2 C 83 % 1022,5 hPa 0,0 l/m 0 min 0 min 0,0 UV-I 0 W/m 7,7 km/h (2 Bft)
02.05.2014 23:18 8,2 C 7,2 C 83 % 1022,5 hPa 0,0 l/m 0 min 0 min 0,0 UV-I 0 W/m 7,7 km/h (2 Bft)
02.05.2014 23:20 8,2 C 7,2 C 83 % 1022,5 hPa 0,0 l/m 0 min 0 min 0,0 UV-I 0 W/m 12,9 km/h (3 Bft)
02.05.2014 23:22 8,2 C 7,2 C 83 % 1022,5 hPa 0,0 l/m 0 min 0 min 0,0 UV-I 0 W/m 10,3 km/h (2 Bft)
02.05.2014 23:24 8,2 C 7,2 C 83 % 1022,6 hPa 0,0 l/m 0 min 0 min 0,0 UV-I 0 W/m 0,0 km/h (0 Bft)
02.05.2014 23:26 8,2 C 7,2 C 83 % 1022,6 hPa 0,0 l/m 0 min 0 min 0,0 UV-I 0 W/m 2,6 km/h (1 Bft)
02.05.2014 23:28 8,2 C 7,2 C 83 % 1022,6 hPa 0,0 l/m 0 min 0 min 0,0 UV-I 0 W/m 7,7 km/h (2 Bft)
02.05.2014 23:30 8,2 C 7,2 C 84 % 1022,6 hPa 0,0 l/m 0 min 0 min 0,0 UV-I 0 W/m 2,6 km/h (1 Bft)
02.05.2014 23:32 8,2 C 7,2 C 84 % 1022,6 hPa 0,0 l/m 0 min 0 min 0,0 UV-I 0 W/m 5,1 km/h (1 Bft)
02.05.2014 23:34 8,2 C 7,2 C 84 % 1022,6 hPa 0,0 l/m 0 min 0 min 0,0 UV-I 0 W/m 5,1 km/h (1 Bft)
02.05.2014 23:36 8,2 C 7,2 C 84 % 1022,7 hPa 0,0 l/m 0 min 0 min 0,0 UV-I 0 W/m 7,7 km/h (2 Bft)
02.05.2014 23:38 8,2 C 7,2 C 84 % 1022,7 hPa 0,0 l/m 0 min 0 min 0,0 UV-I 0 W/m 7,7 km/h (2 Bft)
02.05.2014 23:40 8,2 C 7,2 C 84 % 1022,7 hPa 0,0 l/m 0 min 0 min 0,0 UV-I 0 W/m 2,6 km/h (1 Bft)
02.05.2014 23:42 8,2 C 7,2 C 84 % 1022,7 hPa 0,0 l/m 0 min 0 min 0,0 UV-I 0 W/m 5,1 km/h (1 Bft)
02.05.2014 23:44 8,2 C 7,2 C 84 % 1022,6 hPa 0,0 l/m 0 min 0 min 0,0 UV-I 0 W/m 7,7 km/h (2 Bft)
02.05.2014 23:46 8,2 C 7,2 C 84 % 1022,7 hPa 0,0 l/m 0 min 0 min 0,0 UV-I 0 W/m 0,0 km/h (0 Bft)
02.05.2014 23:48 8,3 C 7,2 C 84 % 1022,8 hPa 0,0 l/m 0 min 0 min 0,0 UV-I 0 W/m 10,3 km/h (2 Bft)
02.05.2014 23:50 8,2 C 7,2 C 84 % 1022,7 hPa 0,0 l/m 0 min 0 min 0,0 UV-I 0 W/m 7,7 km/h (2 Bft)
02.05.2014 23:52 8,3 C 7,2 C 84 % 1022,7 hPa 0,0 l/m 0 min 0 min 0,0 UV-I 0 W/m 0,0 km/h (0 Bft)
02.05.2014 23:54 8,3 C 7,2 C 84 % 1022,8 hPa 0,0 l/m 0 min 0 min 0,0 UV-I 0 W/m 2,6 km/h (1 Bft)
02.05.2014 23:56 8,3 C 7,2 C 84 % 1022,8 hPa 0,0 l/m 0 min 0 min 0,0 UV-I 0 W/m 0,0 km/h (0 Bft)
02.05.2014 23:58 8,3 C 7,2 C 84 % 1022,8 hPa 0,0 l/m 0 min 0 min 0,0 UV-I 0 W/m 0,0 km/h (0 Bft)
_ Min-Zeit 20:56 20:54 18:40 00:06 - - - - - 00:00
Minimum _ 8,1 C 6,1 C 78 % 1010,1 hPa - - - - - 0,0 km/h (0 Bft)
_ Max-Zeit 11:08 11:00 01:18 23:48 04:30 09:48 00:00 10:54 11:02 13:36
Maximum _ 12,4 C 12,8 C 98 % 1022,8 hPa 0,2 l/m 2 min 2 min 1,4 UV-I 506 W/m 33,5 km/h
NW (5 Bft)
Durchschnitt _ 10,5 C 9,7 C 90 % 1015,9 hPa #0,4 l/m #50 min. #2:42 h 0,8 UV-I 122 W/m 11,4 km/h (2 Bft)
© 2014 W. Hausmann